<?xml version="1.0" encoding="utf-8"?>
<gpx xmlns:xsi="http://www.w3.org/2001/XMLSchema-instance" xmlns:xsd="http://www.w3.org/2001/XMLSchema" version="1.1" creator="Shapelink.com" xmlns="http://www.topografix.com/GPX/1/1" xmlns:gpxtpx="http://www.garmin.com/xmlschemas/TrackPointExtension/v1">
  <metadata>
    <name>Längdskidåkning - Klassisk 10.11 km, 2013-01-01</name>
    <desc></desc>
    <author><name>Alexander Engvall</name></author> 
    <time>2013-01-01T21:06:19Z</time>
  </metadata>
  <trk>
    <name>Längdskidåkning - Klassisk 10.11 km, 2013-01-01</name>
    <trkseg>
      <trkpt lat="59.5925877336" lon="17.5173021387">
        <ele>55</ele>
        <time>2013-01-01T21:06:19Z</time>
      </trkpt>
      <trkpt lat="59.5925893262" lon="17.5171235204">
        <ele>54.6</ele>
        <time>2013-01-01T21:06:22Z</time>
      </trkpt>
      <trkpt lat="59.5926271286" lon="17.5167181715">
        <ele>54</ele>
        <time>2013-01-01T21:06:26Z</time>
      </trkpt>
      <trkpt lat="59.5926969498" lon="17.5163526367">
        <ele>53.6</ele>
        <time>2013-01-01T21:06:29Z</time>
      </trkpt>
      <trkpt lat="59.5928137936" lon="17.5160172768">
        <ele>53.6</ele>
        <time>2013-01-01T21:06:32Z</time>
      </trkpt>
      <trkpt lat="59.592928458" lon="17.5156452879">
        <ele>53.4</ele>
        <time>2013-01-01T21:06:35Z</time>
      </trkpt>
      <trkpt lat="59.5930514205" lon="17.515289057">
        <ele>52.6</ele>
        <time>2013-01-01T21:06:38Z</time>
      </trkpt>
      <trkpt lat="59.5931731258" lon="17.5149298925">
        <ele>51.8</ele>
        <time>2013-01-01T21:06:41Z</time>
      </trkpt>
      <trkpt lat="59.593317546" lon="17.5146517809">
        <ele>51.2</ele>
        <time>2013-01-01T21:06:44Z</time>
      </trkpt>
      <trkpt lat="59.5934883691" lon="17.5145254657">
        <ele>51</ele>
        <time>2013-01-01T21:06:47Z</time>
      </trkpt>
      <trkpt lat="59.5935410913" lon="17.5144993979">
        <ele>51</ele>
        <time>2013-01-01T21:06:48Z</time>
      </trkpt>
      <trkpt lat="59.5937016886" lon="17.5144515373">
        <ele>51.2</ele>
        <time>2013-01-01T21:06:51Z</time>
      </trkpt>
      <trkpt lat="59.5938921254" lon="17.5145453308">
        <ele>52</ele>
        <time>2013-01-01T21:06:56Z</time>
      </trkpt>
      <trkpt lat="59.5939145889" lon="17.5145909283">
        <ele>52.4</ele>
        <time>2013-01-01T21:06:57Z</time>
      </trkpt>
      <trkpt lat="59.5939306822" lon="17.5146412198">
        <ele>52.6</ele>
        <time>2013-01-01T21:06:58Z</time>
      </trkpt>
      <trkpt lat="59.5939758606" lon="17.5147492625">
        <ele>53.2</ele>
        <time>2013-01-01T21:07:00Z</time>
      </trkpt>
      <trkpt lat="59.5940348692" lon="17.5148427207">
        <ele>53.8</ele>
        <time>2013-01-01T21:07:02Z</time>
      </trkpt>
      <trkpt lat="59.5941943768" lon="17.5150961895">
        <ele>55.6</ele>
        <time>2013-01-01T21:07:08Z</time>
      </trkpt>
      <trkpt lat="59.5943753421" lon="17.5152906496">
        <ele>57.2</ele>
        <time>2013-01-01T21:07:15Z</time>
      </trkpt>
      <trkpt lat="59.5944010746" lon="17.5153044797">
        <ele>57.4</ele>
        <time>2013-01-01T21:07:16Z</time>
      </trkpt>
      <trkpt lat="59.5945603307" lon="17.5154057331">
        <ele>58.6</ele>
        <time>2013-01-01T21:07:22Z</time>
      </trkpt>
      <trkpt lat="59.5945862308" lon="17.5154228322">
        <ele>58.6</ele>
        <time>2013-01-01T21:07:23Z</time>
      </trkpt>
      <trkpt lat="59.5947372727" lon="17.5155221578">
        <ele>59.6</ele>
        <time>2013-01-01T21:07:28Z</time>
      </trkpt>
      <trkpt lat="59.5949380193" lon="17.51561746">
        <ele>60.4</ele>
        <time>2013-01-01T21:07:33Z</time>
      </trkpt>
      <trkpt lat="59.5951124467" lon="17.515670266">
        <ele>60.6</ele>
        <time>2013-01-01T21:07:37Z</time>
      </trkpt>
      <trkpt lat="59.5951464772" lon="17.5156621356">
        <ele>60.6</ele>
        <time>2013-01-01T21:07:38Z</time>
      </trkpt>
      <trkpt lat="59.5953016263" lon="17.515632296">
        <ele>60.4</ele>
        <time>2013-01-01T21:07:42Z</time>
      </trkpt>
      <trkpt lat="59.5953384228" lon="17.5155980978">
        <ele>60.4</ele>
        <time>2013-01-01T21:07:43Z</time>
      </trkpt>
      <trkpt lat="59.5954561885" lon="17.515324764">
        <ele>60.4</ele>
        <time>2013-01-01T21:07:49Z</time>
      </trkpt>
      <trkpt lat="59.5955906343" lon="17.514993595">
        <ele>60.6</ele>
        <time>2013-01-01T21:07:55Z</time>
      </trkpt>
      <trkpt lat="59.595682919" lon="17.5146119669">
        <ele>60</ele>
        <time>2013-01-01T21:08:01Z</time>
      </trkpt>
      <trkpt lat="59.5957484655" lon="17.5142279919">
        <ele>59.6</ele>
        <time>2013-01-01T21:08:06Z</time>
      </trkpt>
      <trkpt lat="59.5957517345" lon="17.5140495412">
        <ele>58.6</ele>
        <time>2013-01-01T21:08:08Z</time>
      </trkpt>
      <trkpt lat="59.5957491361" lon="17.513846783">
        <ele>56.8</ele>
        <time>2013-01-01T21:08:10Z</time>
      </trkpt>
      <trkpt lat="59.5957525726" lon="17.513439171">
        <ele>53.4</ele>
        <time>2013-01-01T21:08:13Z</time>
      </trkpt>
      <trkpt lat="59.59576305" lon="17.5132945832">
        <ele>52.2</ele>
        <time>2013-01-01T21:08:14Z</time>
      </trkpt>
      <trkpt lat="59.595820969" lon="17.5130261946">
        <ele>49.2</ele>
        <time>2013-01-01T21:08:16Z</time>
      </trkpt>
      <trkpt lat="59.595973352" lon="17.5127735641">
        <ele>47</ele>
        <time>2013-01-01T21:08:19Z</time>
      </trkpt>
      <trkpt lat="59.5961549878" lon="17.5126466621">
        <ele>47</ele>
        <time>2013-01-01T21:08:22Z</time>
      </trkpt>
      <trkpt lat="59.5963360369" lon="17.5125862285">
        <ele>47.8</ele>
        <time>2013-01-01T21:08:25Z</time>
      </trkpt>
      <trkpt lat="59.5963944588" lon="17.5125810318">
        <ele>48.2</ele>
        <time>2013-01-01T21:08:26Z</time>
      </trkpt>
      <trkpt lat="59.5965693891" lon="17.5125598256">
        <ele>49.4</ele>
        <time>2013-01-01T21:08:29Z</time>
      </trkpt>
      <trkpt lat="59.5968013164" lon="17.5125436485">
        <ele>50.8</ele>
        <time>2013-01-01T21:08:33Z</time>
      </trkpt>
      <trkpt lat="59.5969965309" lon="17.5124846399">
        <ele>51.4</ele>
        <time>2013-01-01T21:08:37Z</time>
      </trkpt>
      <trkpt lat="59.5970381889" lon="17.5124624278">
        <ele>51.4</ele>
        <time>2013-01-01T21:08:38Z</time>
      </trkpt>
      <trkpt lat="59.5970888995" lon="17.5124435686">
        <ele>51.6</ele>
        <time>2013-01-01T21:08:39Z</time>
      </trkpt>
      <trkpt lat="59.5971935894" lon="17.5124073587">
        <ele>51.8</ele>
        <time>2013-01-01T21:08:41Z</time>
      </trkpt>
      <trkpt lat="59.5972367562" lon="17.5123805366">
        <ele>51.8</ele>
        <time>2013-01-01T21:08:42Z</time>
      </trkpt>
      <trkpt lat="59.597365167" lon="17.5123151578">
        <ele>52</ele>
        <time>2013-01-01T21:08:45Z</time>
      </trkpt>
      <trkpt lat="59.5974007901" lon="17.5122960471">
        <ele>52.2</ele>
        <time>2013-01-01T21:08:46Z</time>
      </trkpt>
      <trkpt lat="59.5975329727" lon="17.51222522">
        <ele>52.4</ele>
        <time>2013-01-01T21:08:49Z</time>
      </trkpt>
      <trkpt lat="59.5975781512" lon="17.5122004934">
        <ele>52.2</ele>
        <time>2013-01-01T21:08:50Z</time>
      </trkpt>
      <trkpt lat="59.5977022871" lon="17.5121143274">
        <ele>52</ele>
        <time>2013-01-01T21:08:53Z</time>
      </trkpt>
      <trkpt lat="59.597747298" lon="17.512074681">
        <ele>51.8</ele>
        <time>2013-01-01T21:08:54Z</time>
      </trkpt>
      <trkpt lat="59.5978980884" lon="17.5119430851">
        <ele>51.4</ele>
        <time>2013-01-01T21:08:57Z</time>
      </trkpt>
      <trkpt lat="59.5979517326" lon="17.5118897762">
        <ele>51.2</ele>
        <time>2013-01-01T21:08:58Z</time>
      </trkpt>
      <trkpt lat="59.598137727" lon="17.5116404984">
        <ele>50.2</ele>
        <time>2013-01-01T21:09:02Z</time>
      </trkpt>
      <trkpt lat="59.5982745197" lon="17.5114388298">
        <ele>48.6</ele>
        <time>2013-01-01T21:09:05Z</time>
      </trkpt>
      <trkpt lat="59.5983169321" lon="17.5113749597">
        <ele>48</ele>
        <time>2013-01-01T21:09:06Z</time>
      </trkpt>
      <trkpt lat="59.5985023398" lon="17.5111378357">
        <ele>46</ele>
        <time>2013-01-01T21:09:10Z</time>
      </trkpt>
      <trkpt lat="59.5986775216" lon="17.5110324752">
        <ele>45.2</ele>
        <time>2013-01-01T21:09:13Z</time>
      </trkpt>
      <trkpt lat="59.5988874882" lon="17.5109148771">
        <ele>44.2</ele>
        <time>2013-01-01T21:09:17Z</time>
      </trkpt>
      <trkpt lat="59.5991032384" lon="17.51082737">
        <ele>43.8</ele>
        <time>2013-01-01T21:09:21Z</time>
      </trkpt>
      <trkpt lat="59.5993404463" lon="17.5108806789">
        <ele>44</ele>
        <time>2013-01-01T21:09:25Z</time>
      </trkpt>
      <trkpt lat="59.5994424541" lon="17.5112125184">
        <ele>46</ele>
        <time>2013-01-01T21:09:29Z</time>
      </trkpt>
      <trkpt lat="59.5994867943" lon="17.5114568509">
        <ele>47.4</ele>
        <time>2013-01-01T21:09:32Z</time>
      </trkpt>
      <trkpt lat="59.5994896442" lon="17.5115289353">
        <ele>47.8</ele>
        <time>2013-01-01T21:09:33Z</time>
      </trkpt>
      <trkpt lat="59.5994905662" lon="17.5116046239">
        <ele>48.2</ele>
        <time>2013-01-01T21:09:34Z</time>
      </trkpt>
      <trkpt lat="59.5994874649" lon="17.5118156802">
        <ele>48.8</ele>
        <time>2013-01-01T21:09:37Z</time>
      </trkpt>
      <trkpt lat="59.5994547755" lon="17.511985749">
        <ele>49.4</ele>
        <time>2013-01-01T21:09:40Z</time>
      </trkpt>
      <trkpt lat="59.5993082598" lon="17.5122645311">
        <ele>51.2</ele>
        <time>2013-01-01T21:09:46Z</time>
      </trkpt>
      <trkpt lat="59.5991597325" lon="17.5124904234">
        <ele>52.8</ele>
        <time>2013-01-01T21:09:51Z</time>
      </trkpt>
      <trkpt lat="59.5991064236" lon="17.5128565449">
        <ele>53</ele>
        <time>2013-01-01T21:09:57Z</time>
      </trkpt>
      <trkpt lat="59.5990836248" lon="17.5132502429">
        <ele>53.2</ele>
        <time>2013-01-01T21:10:03Z</time>
      </trkpt>
      <trkpt lat="59.5989611652" lon="17.5135227386">
        <ele>52.8</ele>
        <time>2013-01-01T21:10:08Z</time>
      </trkpt>
      <trkpt lat="59.598817667" lon="17.5137783866">
        <ele>52.6</ele>
        <time>2013-01-01T21:10:14Z</time>
      </trkpt>
      <trkpt lat="59.5986310858" lon="17.5138657261">
        <ele>53.6</ele>
        <time>2013-01-01T21:10:21Z</time>
      </trkpt>
      <trkpt lat="59.5986716542" lon="17.5138554163">
        <ele>53.2</ele>
        <time>2013-01-01T21:10:38Z</time>
      </trkpt>
      <trkpt lat="59.5987399668" lon="17.5138284266">
        <ele>53</ele>
        <time>2013-01-01T21:10:40Z</time>
      </trkpt>
      <trkpt lat="59.5989128854" lon="17.5136202201">
        <ele>52.8</ele>
        <time>2013-01-01T21:10:43Z</time>
      </trkpt>
      <trkpt lat="59.5990534499" lon="17.5133347325">
        <ele>53.4</ele>
        <time>2013-01-01T21:10:46Z</time>
      </trkpt>
      <trkpt lat="59.5990908332" lon="17.5132353231">
        <ele>53.2</ele>
        <time>2013-01-01T21:10:47Z</time>
      </trkpt>
      <trkpt lat="59.5991584752" lon="17.5130350795">
        <ele>53</ele>
        <time>2013-01-01T21:10:49Z</time>
      </trkpt>
      <trkpt lat="59.5991930924" lon="17.5128357578">
        <ele>52.6</ele>
        <time>2013-01-01T21:10:51Z</time>
      </trkpt>
      <trkpt lat="59.5991999656" lon="17.5126302335">
        <ele>52.6</ele>
        <time>2013-01-01T21:10:53Z</time>
      </trkpt>
      <trkpt lat="59.5992443897" lon="17.5122899283">
        <ele>51.8</ele>
        <time>2013-01-01T21:10:57Z</time>
      </trkpt>
      <trkpt lat="59.5993966889" lon="17.5120633654">
        <ele>50</ele>
        <time>2013-01-01T21:11:01Z</time>
      </trkpt>
      <trkpt lat="59.5994366705" lon="17.5120039377">
        <ele>49.6</ele>
        <time>2013-01-01T21:11:02Z</time>
      </trkpt>
      <trkpt lat="59.5994850341" lon="17.5119479466">
        <ele>49.2</ele>
        <time>2013-01-01T21:11:03Z</time>
      </trkpt>
      <trkpt lat="59.5995378401" lon="17.5117903668">
        <ele>48.4</ele>
        <time>2013-01-01T21:11:05Z</time>
      </trkpt>
      <trkpt lat="59.5995518379" lon="17.511420222">
        <ele>46.8</ele>
        <time>2013-01-01T21:11:09Z</time>
      </trkpt>
      <trkpt lat="59.5994550269" lon="17.5111074932">
        <ele>45.2</ele>
        <time>2013-01-01T21:11:12Z</time>
      </trkpt>
      <trkpt lat="59.5994218346" lon="17.5110239256">
        <ele>44.8</ele>
        <time>2013-01-01T21:11:13Z</time>
      </trkpt>
      <trkpt lat="59.5993878879" lon="17.510962151">
        <ele>44.6</ele>
        <time>2013-01-01T21:11:14Z</time>
      </trkpt>
      <trkpt lat="59.5993045717" lon="17.510900544">
        <ele>44.2</ele>
        <time>2013-01-01T21:11:16Z</time>
      </trkpt>
      <trkpt lat="59.5992133766" lon="17.5108372606">
        <ele>43.8</ele>
        <time>2013-01-01T21:11:18Z</time>
      </trkpt>
      <trkpt lat="59.5991686173" lon="17.5108265318">
        <ele>43.8</ele>
        <time>2013-01-01T21:11:19Z</time>
      </trkpt>
      <trkpt lat="59.5991292223" lon="17.5108286273">
        <ele>43.8</ele>
        <time>2013-01-01T21:11:20Z</time>
      </trkpt>
      <trkpt lat="59.5989508554" lon="17.5108929165">
        <ele>44.2</ele>
        <time>2013-01-01T21:11:25Z</time>
      </trkpt>
      <trkpt lat="59.5988388732" lon="17.5109577924">
        <ele>44.6</ele>
        <time>2013-01-01T21:11:28Z</time>
      </trkpt>
      <trkpt lat="59.5987732429" lon="17.5110043958">
        <ele>45</ele>
        <time>2013-01-01T21:11:30Z</time>
      </trkpt>
      <trkpt lat="59.5985845663" lon="17.5111480616">
        <ele>46.2</ele>
        <time>2013-01-01T21:11:36Z</time>
      </trkpt>
      <trkpt lat="59.5983892679" lon="17.5113055576">
        <ele>47.4</ele>
        <time>2013-01-01T21:11:41Z</time>
      </trkpt>
      <trkpt lat="59.5982126612" lon="17.511468837">
        <ele>48.6</ele>
        <time>2013-01-01T21:11:46Z</time>
      </trkpt>
      <trkpt lat="59.598075198" lon="17.5117096491">
        <ele>50.6</ele>
        <time>2013-01-01T21:11:52Z</time>
      </trkpt>
      <trkpt lat="59.5979144331" lon="17.5119656324">
        <ele>51.6</ele>
        <time>2013-01-01T21:11:58Z</time>
      </trkpt>
      <trkpt lat="59.5977268461" lon="17.5121012516">
        <ele>52</ele>
        <time>2013-01-01T21:12:04Z</time>
      </trkpt>
      <trkpt lat="59.5975530893" lon="17.5122541375">
        <ele>52.6</ele>
        <time>2013-01-01T21:12:10Z</time>
      </trkpt>
      <trkpt lat="59.5973641612" lon="17.5123557262">
        <ele>52.4</ele>
        <time>2013-01-01T21:12:15Z</time>
      </trkpt>
      <trkpt lat="59.5971739758" lon="17.5124529563">
        <ele>52</ele>
        <time>2013-01-01T21:12:20Z</time>
      </trkpt>
      <trkpt lat="59.5969609916" lon="17.512552198">
        <ele>51.6</ele>
        <time>2013-01-01T21:12:25Z</time>
      </trkpt>
      <trkpt lat="59.5968676172" lon="17.5125948619">
        <ele>51.4</ele>
        <time>2013-01-01T21:12:27Z</time>
      </trkpt>
      <trkpt lat="59.5967869833" lon="17.5126342569">
        <ele>51.2</ele>
        <time>2013-01-01T21:12:29Z</time>
      </trkpt>
      <trkpt lat="59.5967481751" lon="17.5126363523">
        <ele>51</ele>
        <time>2013-01-01T21:12:30Z</time>
      </trkpt>
      <trkpt lat="59.5966808684" lon="17.5126315746">
        <ele>50.8</ele>
        <time>2013-01-01T21:12:32Z</time>
      </trkpt>
      <trkpt lat="59.5966028329" lon="17.5126543734">
        <ele>50.4</ele>
        <time>2013-01-01T21:12:34Z</time>
      </trkpt>
      <trkpt lat="59.5965663716" lon="17.5126569718">
        <ele>50.2</ele>
        <time>2013-01-01T21:12:35Z</time>
      </trkpt>
      <trkpt lat="59.5964348596" lon="17.5126663595">
        <ele>49.2</ele>
        <time>2013-01-01T21:12:38Z</time>
      </trkpt>
      <trkpt lat="59.5963558182" lon="17.5126762502">
        <ele>48.8</ele>
        <time>2013-01-01T21:12:40Z</time>
      </trkpt>
      <trkpt lat="59.5961942989" lon="17.5126994681">
        <ele>47.8</ele>
        <time>2013-01-01T21:12:44Z</time>
      </trkpt>
      <trkpt lat="59.5961518865" lon="17.5127192494">
        <ele>47.8</ele>
        <time>2013-01-01T21:12:45Z</time>
      </trkpt>
      <trkpt lat="59.5959621202" lon="17.5128043257">
        <ele>47.4</ele>
        <time>2013-01-01T21:12:50Z</time>
      </trkpt>
      <trkpt lat="59.5957892854" lon="17.5129376817">
        <ele>48</ele>
        <time>2013-01-01T21:12:56Z</time>
      </trkpt>
      <trkpt lat="59.5957308635" lon="17.5132711977">
        <ele>51.8</ele>
        <time>2013-01-01T21:13:03Z</time>
      </trkpt>
      <trkpt lat="59.5957337972" lon="17.5133070722">
        <ele>52.2</ele>
        <time>2013-01-01T21:13:04Z</time>
      </trkpt>
      <trkpt lat="59.5957410894" lon="17.5136191305">
        <ele>55</ele>
        <time>2013-01-01T21:13:11Z</time>
      </trkpt>
      <trkpt lat="59.5957659837" lon="17.5140166841">
        <ele>58.4</ele>
        <time>2013-01-01T21:13:19Z</time>
      </trkpt>
      <trkpt lat="59.5957485493" lon="17.5143769383">
        <ele>59.8</ele>
        <time>2013-01-01T21:13:26Z</time>
      </trkpt>
      <trkpt lat="59.5956723578" lon="17.514729565">
        <ele>60.2</ele>
        <time>2013-01-01T21:13:32Z</time>
      </trkpt>
      <trkpt lat="59.595602788" lon="17.5150650926">
        <ele>60.6</ele>
        <time>2013-01-01T21:13:37Z</time>
      </trkpt>
      <trkpt lat="59.5954677556" lon="17.5153631531">
        <ele>60.4</ele>
        <time>2013-01-01T21:13:42Z</time>
      </trkpt>
      <trkpt lat="59.5953308791" lon="17.5156708527">
        <ele>60.4</ele>
        <time>2013-01-01T21:13:47Z</time>
      </trkpt>
      <trkpt lat="59.5952973515" lon="17.5157241616">
        <ele>60.6</ele>
        <time>2013-01-01T21:13:48Z</time>
      </trkpt>
      <trkpt lat="59.5951396879" lon="17.5157741178">
        <ele>60.6</ele>
        <time>2013-01-01T21:13:51Z</time>
      </trkpt>
      <trkpt lat="59.5950337406" lon="17.5157568511">
        <ele>60.8</ele>
        <time>2013-01-01T21:13:53Z</time>
      </trkpt>
      <trkpt lat="59.5949265361" lon="17.5157357287">
        <ele>60.6</ele>
        <time>2013-01-01T21:13:55Z</time>
      </trkpt>
      <trkpt lat="59.5948064234" lon="17.5157000218">
        <ele>60.2</ele>
        <time>2013-01-01T21:13:57Z</time>
      </trkpt>
      <trkpt lat="59.5947072655" lon="17.5156259257">
        <ele>59.6</ele>
        <time>2013-01-01T21:13:59Z</time>
      </trkpt>
      <trkpt lat="59.5945277251" lon="17.5154640712">
        <ele>58.6</ele>
        <time>2013-01-01T21:14:03Z</time>
      </trkpt>
      <trkpt lat="59.5943167526" lon="17.5152979419">
        <ele>57</ele>
        <time>2013-01-01T21:14:07Z</time>
      </trkpt>
      <trkpt lat="59.5941513777" lon="17.5151405297">
        <ele>55.6</ele>
        <time>2013-01-01T21:14:10Z</time>
      </trkpt>
      <trkpt lat="59.5940394793" lon="17.5150128733">
        <ele>54.6</ele>
        <time>2013-01-01T21:14:12Z</time>
      </trkpt>
      <trkpt lat="59.5939843263" lon="17.5149321556">
        <ele>54.2</ele>
        <time>2013-01-01T21:14:13Z</time>
      </trkpt>
      <trkpt lat="59.5938170236" lon="17.5146463327">
        <ele>52.4</ele>
        <time>2013-01-01T21:14:16Z</time>
      </trkpt>
      <trkpt lat="59.5937593561" lon="17.5145784393">
        <ele>51.8</ele>
        <time>2013-01-01T21:14:17Z</time>
      </trkpt>
      <trkpt lat="59.5936339628" lon="17.5145236216">
        <ele>51.4</ele>
        <time>2013-01-01T21:14:19Z</time>
      </trkpt>
      <trkpt lat="59.5934558474" lon="17.5146075245">
        <ele>51.4</ele>
        <time>2013-01-01T21:14:22Z</time>
      </trkpt>
      <trkpt lat="59.5933527499" lon="17.5146871526">
        <ele>51.4</ele>
        <time>2013-01-01T21:14:24Z</time>
      </trkpt>
      <trkpt lat="59.5932765584" lon="17.5147809461">
        <ele>51.6</ele>
        <time>2013-01-01T21:14:26Z</time>
      </trkpt>
      <trkpt lat="59.593204977" lon="17.5148959458">
        <ele>51.8</ele>
        <time>2013-01-01T21:14:28Z</time>
      </trkpt>
      <trkpt lat="59.5931306295" lon="17.515073223">
        <ele>52.2</ele>
        <time>2013-01-01T21:14:31Z</time>
      </trkpt>
      <trkpt lat="59.5930380933" lon="17.5154394284">
        <ele>53.2</ele>
        <time>2013-01-01T21:14:37Z</time>
      </trkpt>
      <trkpt lat="59.5929598901" lon="17.5157910492">
        <ele>54</ele>
        <time>2013-01-01T21:14:43Z</time>
      </trkpt>
      <trkpt lat="59.592814045" lon="17.516087098">
        <ele>53.8</ele>
        <time>2013-01-01T21:14:49Z</time>
      </trkpt>
      <trkpt lat="59.5926970337" lon="17.5163838174">
        <ele>53.6</ele>
        <time>2013-01-01T21:14:55Z</time>
      </trkpt>
      <trkpt lat="59.5926376898" lon="17.5167677924">
        <ele>54.2</ele>
        <time>2013-01-01T21:15:03Z</time>
      </trkpt>
      <trkpt lat="59.5926133823" lon="17.5171563774">
        <ele>54.8</ele>
        <time>2013-01-01T21:15:12Z</time>
      </trkpt>
      <trkpt lat="59.5926063415" lon="17.5173221715">
        <ele>55.2</ele>
        <time>2013-01-01T21:15:15Z</time>
      </trkpt>
      <trkpt lat="59.5925967861" lon="17.5175526738">
        <ele>55.4</ele>
        <time>2013-01-01T21:15:19Z</time>
      </trkpt>
      <trkpt lat="59.5925751608" lon="17.5177105889">
        <ele>55</ele>
        <time>2013-01-01T21:15:22Z</time>
      </trkpt>
      <trkpt lat="59.5925667789" lon="17.5178754609">
        <ele>54.8</ele>
        <time>2013-01-01T21:15:29Z</time>
      </trkpt>
      <trkpt lat="59.592575999" lon="17.5175800826">
        <ele>55.2</ele>
        <time>2013-01-01T21:15:36Z</time>
      </trkpt>
      <trkpt lat="59.5925726462" lon="17.5175246783">
        <ele>55.4</ele>
        <time>2013-01-01T21:15:37Z</time>
      </trkpt>
      <trkpt lat="59.5925999712" lon="17.5171638373">
        <ele>54.8</ele>
        <time>2013-01-01T21:15:43Z</time>
      </trkpt>
      <trkpt lat="59.5926183276" lon="17.5167867355">
        <ele>54</ele>
        <time>2013-01-01T21:15:47Z</time>
      </trkpt>
      <trkpt lat="59.5926373545" lon="17.5165285729">
        <ele>53.6</ele>
        <time>2013-01-01T21:15:49Z</time>
      </trkpt>
      <trkpt lat="59.5926531963" lon="17.5164043531">
        <ele>53.4</ele>
        <time>2013-01-01T21:15:50Z</time>
      </trkpt>
      <trkpt lat="59.5926773362" lon="17.5162949692">
        <ele>53.2</ele>
        <time>2013-01-01T21:15:51Z</time>
      </trkpt>
      <trkpt lat="59.592741793" lon="17.5160627905">
        <ele>53.2</ele>
        <time>2013-01-01T21:15:53Z</time>
      </trkpt>
      <trkpt lat="59.592828881" lon="17.515850896">
        <ele>53.4</ele>
        <time>2013-01-01T21:15:55Z</time>
      </trkpt>
      <trkpt lat="59.5928670187" lon="17.5157269277">
        <ele>53.2</ele>
        <time>2013-01-01T21:15:56Z</time>
      </trkpt>
      <trkpt lat="59.5929810964" lon="17.5153485686">
        <ele>52.6</ele>
        <time>2013-01-01T21:15:59Z</time>
      </trkpt>
      <trkpt lat="59.5930212457" lon="17.515227953">
        <ele>52.2</ele>
        <time>2013-01-01T21:16:00Z</time>
      </trkpt>
      <trkpt lat="59.5931029692" lon="17.5149719696">
        <ele>51.6</ele>
        <time>2013-01-01T21:16:02Z</time>
      </trkpt>
      <trkpt lat="59.5932336431" lon="17.5146588217">
        <ele>51</ele>
        <time>2013-01-01T21:16:05Z</time>
      </trkpt>
      <trkpt lat="59.5932782348" lon="17.514575338">
        <ele>50.6</ele>
        <time>2013-01-01T21:16:06Z</time>
      </trkpt>
      <trkpt lat="59.5934497286" lon="17.5144677982">
        <ele>50.6</ele>
        <time>2013-01-01T21:16:09Z</time>
      </trkpt>
      <trkpt lat="59.5935109165" lon="17.5144569855">
        <ele>50.8</ele>
        <time>2013-01-01T21:16:10Z</time>
      </trkpt>
      <trkpt lat="59.5936388243" lon="17.5144290738">
        <ele>50.8</ele>
        <time>2013-01-01T21:16:12Z</time>
      </trkpt>
      <trkpt lat="59.5937402453" lon="17.514440557">
        <ele>51.2</ele>
        <time>2013-01-01T21:16:14Z</time>
      </trkpt>
      <trkpt lat="59.5938067976" lon="17.5144797843">
        <ele>51.6</ele>
        <time>2013-01-01T21:16:16Z</time>
      </trkpt>
      <trkpt lat="59.5938394871" lon="17.5145181734">
        <ele>51.8</ele>
        <time>2013-01-01T21:16:17Z</time>
      </trkpt>
      <trkpt lat="59.5939190313" lon="17.5146380346">
        <ele>52.6</ele>
        <time>2013-01-01T21:16:19Z</time>
      </trkpt>
      <trkpt lat="59.5939875953" lon="17.514758734">
        <ele>53.4</ele>
        <time>2013-01-01T21:16:22Z</time>
      </trkpt>
      <trkpt lat="59.5940094721" lon="17.5147972908">
        <ele>53.6</ele>
        <time>2013-01-01T21:16:23Z</time>
      </trkpt>
      <trkpt lat="59.5941349491" lon="17.5150377676">
        <ele>55</ele>
        <time>2013-01-01T21:16:28Z</time>
      </trkpt>
      <trkpt lat="59.5941759367" lon="17.5150985364">
        <ele>55.4</ele>
        <time>2013-01-01T21:16:30Z</time>
      </trkpt>
      <trkpt lat="59.5942821354" lon="17.5151645858">
        <ele>56.4</ele>
        <time>2013-01-01T21:16:34Z</time>
      </trkpt>
      <trkpt lat="59.5943022519" lon="17.5151814334">
        <ele>56.4</ele>
        <time>2013-01-01T21:16:35Z</time>
      </trkpt>
      <trkpt lat="59.5944747515" lon="17.5153485686">
        <ele>58</ele>
        <time>2013-01-01T21:16:42Z</time>
      </trkpt>
      <trkpt lat="59.5946490951" lon="17.5154902227">
        <ele>59.2</ele>
        <time>2013-01-01T21:16:50Z</time>
      </trkpt>
      <trkpt lat="59.5948242769" lon="17.5155722816">
        <ele>60</ele>
        <time>2013-01-01T21:16:55Z</time>
      </trkpt>
      <trkpt lat="59.5950077567" lon="17.5156131852">
        <ele>60.6</ele>
        <time>2013-01-01T21:17:00Z</time>
      </trkpt>
      <trkpt lat="59.5951925777" lon="17.5156357326">
        <ele>60.6</ele>
        <time>2013-01-01T21:17:06Z</time>
      </trkpt>
      <trkpt lat="59.5953718666" lon="17.5154997781">
        <ele>60.4</ele>
        <time>2013-01-01T21:17:13Z</time>
      </trkpt>
      <trkpt lat="59.5954876207" lon="17.515170034">
        <ele>60.4</ele>
        <time>2013-01-01T21:17:20Z</time>
      </trkpt>
      <trkpt lat="59.5955914725" lon="17.5147989672">
        <ele>60.2</ele>
        <time>2013-01-01T21:17:26Z</time>
      </trkpt>
      <trkpt lat="59.5956828352" lon="17.5144022517">
        <ele>59.6</ele>
        <time>2013-01-01T21:17:31Z</time>
      </trkpt>
      <trkpt lat="59.5957468729" lon="17.5140527263">
        <ele>58.6</ele>
        <time>2013-01-01T21:17:36Z</time>
      </trkpt>
      <trkpt lat="59.595766319" lon="17.5136215612">
        <ele>55</ele>
        <time>2013-01-01T21:17:40Z</time>
      </trkpt>
      <trkpt lat="59.5957678277" lon="17.5133598782">
        <ele>52.8</ele>
        <time>2013-01-01T21:17:42Z</time>
      </trkpt>
      <trkpt lat="59.595776042" lon="17.5132216606">
        <ele>51.4</ele>
        <time>2013-01-01T21:17:43Z</time>
      </trkpt>
      <trkpt lat="59.5957913809" lon="17.5130826887">
        <ele>49.8</ele>
        <time>2013-01-01T21:17:44Z</time>
      </trkpt>
      <trkpt lat="59.5958571788" lon="17.512828717">
        <ele>47</ele>
        <time>2013-01-01T21:17:46Z</time>
      </trkpt>
      <trkpt lat="59.5960217994" lon="17.5126451533">
        <ele>46</ele>
        <time>2013-01-01T21:17:49Z</time>
      </trkpt>
      <trkpt lat="59.5960834902" lon="17.5126015674">
        <ele>46</ele>
        <time>2013-01-01T21:17:50Z</time>
      </trkpt>
      <trkpt lat="59.5961454324" lon="17.5125566404">
        <ele>46</ele>
        <time>2013-01-01T21:17:51Z</time>
      </trkpt>
      <trkpt lat="59.596209554" lon="17.5125296507">
        <ele>46.4</ele>
        <time>2013-01-01T21:17:52Z</time>
      </trkpt>
      <trkpt lat="59.5962734241" lon="17.5125143956">
        <ele>46.8</ele>
        <time>2013-01-01T21:17:53Z</time>
      </trkpt>
      <trkpt lat="59.5964019187" lon="17.5124903396">
        <ele>47.6</ele>
        <time>2013-01-01T21:17:55Z</time>
      </trkpt>
      <trkpt lat="59.5965354424" lon="17.5124955364">
        <ele>48.8</ele>
        <time>2013-01-01T21:17:57Z</time>
      </trkpt>
      <trkpt lat="59.5965911821" lon="17.512506349">
        <ele>49.4</ele>
        <time>2013-01-01T21:17:58Z</time>
      </trkpt>
      <trkpt lat="59.5968195889" lon="17.5125178322">
        <ele>50.8</ele>
        <time>2013-01-01T21:18:03Z</time>
      </trkpt>
      <trkpt lat="59.5970090199" lon="17.5124250446">
        <ele>51</ele>
        <time>2013-01-01T21:18:07Z</time>
      </trkpt>
      <trkpt lat="59.5971547812" lon="17.5123410579">
        <ele>51.2</ele>
        <time>2013-01-01T21:18:10Z</time>
      </trkpt>
      <trkpt lat="59.5971998759" lon="17.5123201869">
        <ele>51.2</ele>
        <time>2013-01-01T21:18:11Z</time>
      </trkpt>
      <trkpt lat="59.5973681845" lon="17.5122493599">
        <ele>51.6</ele>
        <time>2013-01-01T21:18:15Z</time>
      </trkpt>
      <trkpt lat="59.5974068251" lon="17.5122323446">
        <ele>51.8</ele>
        <time>2013-01-01T21:18:16Z</time>
      </trkpt>
      <trkpt lat="59.5975384209" lon="17.5121709891">
        <ele>52</ele>
        <time>2013-01-01T21:18:19Z</time>
      </trkpt>
      <trkpt lat="59.5975812525" lon="17.5121435802">
        <ele>52</ele>
        <time>2013-01-01T21:18:20Z</time>
      </trkpt>
      <trkpt lat="59.5977631398" lon="17.5120155886">
        <ele>51.4</ele>
        <time>2013-01-01T21:18:24Z</time>
      </trkpt>
      <trkpt lat="59.5978724398" lon="17.5119047798">
        <ele>51</ele>
        <time>2013-01-01T21:18:27Z</time>
      </trkpt>
      <trkpt lat="59.59796682" lon="17.5117869303">
        <ele>50.6</ele>
        <time>2013-01-01T21:18:29Z</time>
      </trkpt>
      <trkpt lat="59.5981471986" lon="17.5115286838">
        <ele>49</ele>
        <time>2013-01-01T21:18:33Z</time>
      </trkpt>
      <trkpt lat="59.5981858391" lon="17.5114570186">
        <ele>48.4</ele>
        <time>2013-01-01T21:18:34Z</time>
      </trkpt>
      <trkpt lat="59.5982707478" lon="17.5113240816">
        <ele>47.4</ele>
        <time>2013-01-01T21:18:36Z</time>
      </trkpt>
      <trkpt lat="59.5983208716" lon="17.5112592895">
        <ele>47</ele>
        <time>2013-01-01T21:18:37Z</time>
      </trkpt>
      <trkpt lat="59.5984986518" lon="17.5111058168">
        <ele>45.6</ele>
        <time>2013-01-01T21:18:40Z</time>
      </trkpt>
      <trkpt lat="59.5987048466" lon="17.5109955948">
        <ele>44.8</ele>
        <time>2013-01-01T21:18:44Z</time>
      </trkpt>
      <trkpt lat="59.5988860633" lon="17.5108737219">
        <ele>44</ele>
        <time>2013-01-01T21:18:48Z</time>
      </trkpt>
      <trkpt lat="59.5989369415" lon="17.5108493306">
        <ele>43.8</ele>
        <time>2013-01-01T21:18:49Z</time>
      </trkpt>
      <trkpt lat="59.599116398" lon="17.5108139589">
        <ele>43.6</ele>
        <time>2013-01-01T21:18:52Z</time>
      </trkpt>
      <trkpt lat="59.5992443897" lon="17.5108615682">
        <ele>44</ele>
        <time>2013-01-01T21:18:54Z</time>
      </trkpt>
      <trkpt lat="59.5992989559" lon="17.5109061599">
        <ele>44.2</ele>
        <time>2013-01-01T21:18:55Z</time>
      </trkpt>
      <trkpt lat="59.5994497463" lon="17.5111970957">
        <ele>45.8</ele>
        <time>2013-01-01T21:18:59Z</time>
      </trkpt>
      <trkpt lat="59.5994761493" lon="17.5112753827">
        <ele>46.2</ele>
        <time>2013-01-01T21:19:00Z</time>
      </trkpt>
      <trkpt lat="59.5995264407" lon="17.5115607865">
        <ele>47.6</ele>
        <time>2013-01-01T21:19:04Z</time>
      </trkpt>
      <trkpt lat="59.5995291229" lon="17.5116385706">
        <ele>48.2</ele>
        <time>2013-01-01T21:19:05Z</time>
      </trkpt>
      <trkpt lat="59.5995370857" lon="17.5117052905">
        <ele>48.4</ele>
        <time>2013-01-01T21:19:06Z</time>
      </trkpt>
      <trkpt lat="59.5994984452" lon="17.511951467">
        <ele>49</ele>
        <time>2013-01-01T21:19:10Z</time>
      </trkpt>
      <trkpt lat="59.5993727166" lon="17.5122001581">
        <ele>50.6</ele>
        <time>2013-01-01T21:19:15Z</time>
      </trkpt>
      <trkpt lat="59.5992013905" lon="17.5124239549">
        <ele>52.4</ele>
        <time>2013-01-01T21:19:21Z</time>
      </trkpt>
      <trkpt lat="59.5991852973" lon="17.5125273876">
        <ele>52.8</ele>
        <time>2013-01-01T21:19:23Z</time>
      </trkpt>
      <trkpt lat="59.5991759934" lon="17.5127902441">
        <ele>52.8</ele>
        <time>2013-01-01T21:19:27Z</time>
      </trkpt>
      <trkpt lat="59.5992076769" lon="17.513214536">
        <ele>52.4</ele>
        <time>2013-01-01T21:19:32Z</time>
      </trkpt>
      <trkpt lat="59.5991775859" lon="17.5133287814">
        <ele>52.8</ele>
        <time>2013-01-01T21:19:34Z</time>
      </trkpt>
      <trkpt lat="59.5990734827" lon="17.5134944916">
        <ele>52.6</ele>
        <time>2013-01-01T21:19:38Z</time>
      </trkpt>
      <trkpt lat="59.599039536" lon="17.5135360658">
        <ele>52.4</ele>
        <time>2013-01-01T21:19:39Z</time>
      </trkpt>
      <trkpt lat="59.5989204291" lon="17.5136847608">
        <ele>52.4</ele>
        <time>2013-01-01T21:19:43Z</time>
      </trkpt>
      <trkpt lat="59.598724544" lon="17.5138326176">
        <ele>53</ele>
        <time>2013-01-01T21:19:49Z</time>
      </trkpt>
      <trkpt lat="59.5986817963" lon="17.5138405804">
        <ele>53.2</ele>
        <time>2013-01-01T21:20:02Z</time>
      </trkpt>
      <trkpt lat="59.5988729876" lon="17.51371569">
        <ele>52.6</ele>
        <time>2013-01-01T21:20:06Z</time>
      </trkpt>
      <trkpt lat="59.5989805274" lon="17.5135471299">
        <ele>52.8</ele>
        <time>2013-01-01T21:20:08Z</time>
      </trkpt>
      <trkpt lat="59.599025622" lon="17.5134495646">
        <ele>53</ele>
        <time>2013-01-01T21:20:09Z</time>
      </trkpt>
      <trkpt lat="59.5991325751" lon="17.5131275319">
        <ele>53</ele>
        <time>2013-01-01T21:20:12Z</time>
      </trkpt>
      <trkpt lat="59.5991721377" lon="17.5129102729">
        <ele>52.8</ele>
        <time>2013-01-01T21:20:14Z</time>
      </trkpt>
      <trkpt lat="59.5991667733" lon="17.5127274636">
        <ele>52.8</ele>
        <time>2013-01-01T21:20:16Z</time>
      </trkpt>
      <trkpt lat="59.599162247" lon="17.5123631861">
        <ele>52.6</ele>
        <time>2013-01-01T21:20:20Z</time>
      </trkpt>
      <trkpt lat="59.5993203297" lon="17.5121043529">
        <ele>50.8</ele>
        <time>2013-01-01T21:20:25Z</time>
      </trkpt>
      <trkpt lat="59.5993591379" lon="17.5120645389">
        <ele>50.4</ele>
        <time>2013-01-01T21:20:26Z</time>
      </trkpt>
      <trkpt lat="59.5993905701" lon="17.5120058656">
        <ele>50</ele>
        <time>2013-01-01T21:20:27Z</time>
      </trkpt>
      <trkpt lat="59.5994400233" lon="17.5118541531">
        <ele>49.4</ele>
        <time>2013-01-01T21:20:29Z</time>
      </trkpt>
      <trkpt lat="59.5994787477" lon="17.5116924662">
        <ele>48.8</ele>
        <time>2013-01-01T21:20:31Z</time>
      </trkpt>
      <trkpt lat="59.599498529" lon="17.5115102436">
        <ele>47.6</ele>
        <time>2013-01-01T21:20:33Z</time>
      </trkpt>
      <trkpt lat="59.5994168893" lon="17.511110343">
        <ele>45.4</ele>
        <time>2013-01-01T21:20:38Z</time>
      </trkpt>
      <trkpt lat="59.5993192401" lon="17.5109013822">
        <ele>44.2</ele>
        <time>2013-01-01T21:20:41Z</time>
      </trkpt>
      <trkpt lat="59.5992776658" lon="17.5108530186">
        <ele>44</ele>
        <time>2013-01-01T21:20:42Z</time>
      </trkpt>
      <trkpt lat="59.5990758296" lon="17.5107984524">
        <ele>43.6</ele>
        <time>2013-01-01T21:20:47Z</time>
      </trkpt>
      <trkpt lat="59.5990063436" lon="17.5108417869">
        <ele>43.8</ele>
        <time>2013-01-01T21:20:49Z</time>
      </trkpt>
      <trkpt lat="59.5989715587" lon="17.5108627416">
        <ele>44</ele>
        <time>2013-01-01T21:20:50Z</time>
      </trkpt>
      <trkpt lat="59.598901486" lon="17.5108998735">
        <ele>44.2</ele>
        <time>2013-01-01T21:20:52Z</time>
      </trkpt>
      <trkpt lat="59.5987069421" lon="17.5110533461">
        <ele>45.4</ele>
        <time>2013-01-01T21:20:58Z</time>
      </trkpt>
      <trkpt lat="59.5985294972" lon="17.5111760572">
        <ele>46.4</ele>
        <time>2013-01-01T21:21:02Z</time>
      </trkpt>
      <trkpt lat="59.5984220412" lon="17.5112639833">
        <ele>47</ele>
        <time>2013-01-01T21:21:05Z</time>
      </trkpt>
      <trkpt lat="59.5983455982" lon="17.5113268476">
        <ele>47.6</ele>
        <time>2013-01-01T21:21:07Z</time>
      </trkpt>
      <trkpt lat="59.5983113162" lon="17.511360459">
        <ele>47.8</ele>
        <time>2013-01-01T21:21:08Z</time>
      </trkpt>
      <trkpt lat="59.5981720928" lon="17.5115455315">
        <ele>49.2</ele>
        <time>2013-01-01T21:21:15Z</time>
      </trkpt>
      <trkpt lat="59.5980358869" lon="17.5117729325">
        <ele>50.8</ele>
        <time>2013-01-01T21:21:21Z</time>
      </trkpt>
      <trkpt lat="59.5978891198" lon="17.5119755231">
        <ele>51.6</ele>
        <time>2013-01-01T21:21:27Z</time>
      </trkpt>
      <trkpt lat="59.5977164526" lon="17.5121041853">
        <ele>52</ele>
        <time>2013-01-01T21:21:33Z</time>
      </trkpt>
      <trkpt lat="59.5975198969" lon="17.5122684706">
        <ele>52.6</ele>
        <time>2013-01-01T21:21:39Z</time>
      </trkpt>
      <trkpt lat="59.5973217487" lon="17.5123862363">
        <ele>52.4</ele>
        <time>2013-01-01T21:21:44Z</time>
      </trkpt>
      <trkpt lat="59.5971264504" lon="17.5124670379">
        <ele>51.8</ele>
        <time>2013-01-01T21:21:49Z</time>
      </trkpt>
      <trkpt lat="59.5970386919" lon="17.5125045888">
        <ele>51.8</ele>
        <time>2013-01-01T21:21:51Z</time>
      </trkpt>
      <trkpt lat="59.5969068445" lon="17.5125520304">
        <ele>51.4</ele>
        <time>2013-01-01T21:21:54Z</time>
      </trkpt>
      <trkpt lat="59.5968238637" lon="17.5125801936">
        <ele>51</ele>
        <time>2013-01-01T21:21:56Z</time>
      </trkpt>
      <trkpt lat="59.5967064332" lon="17.5125911739">
        <ele>50.6</ele>
        <time>2013-01-01T21:21:59Z</time>
      </trkpt>
      <trkpt lat="59.596664859" lon="17.5125880726">
        <ele>50.4</ele>
        <time>2013-01-01T21:22:00Z</time>
      </trkpt>
      <trkpt lat="59.5965849794" lon="17.5125854742">
        <ele>49.8</ele>
        <time>2013-01-01T21:22:02Z</time>
      </trkpt>
      <trkpt lat="59.5965058543" lon="17.5125886593">
        <ele>49.2</ele>
        <time>2013-01-01T21:22:04Z</time>
      </trkpt>
      <trkpt lat="59.596310053" lon="17.5125912577">
        <ele>47.6</ele>
        <time>2013-01-01T21:22:10Z</time>
      </trkpt>
      <trkpt lat="59.5961244777" lon="17.512698127">
        <ele>47.4</ele>
        <time>2013-01-01T21:22:16Z</time>
      </trkpt>
      <trkpt lat="59.5959496312" lon="17.5128353387">
        <ele>47.6</ele>
        <time>2013-01-01T21:22:22Z</time>
      </trkpt>
      <trkpt lat="59.5957966615" lon="17.5130720437">
        <ele>49.6</ele>
        <time>2013-01-01T21:22:29Z</time>
      </trkpt>
      <trkpt lat="59.5957620442" lon="17.5133398455">
        <ele>52.6</ele>
        <time>2013-01-01T21:22:35Z</time>
      </trkpt>
      <trkpt lat="59.5957682468" lon="17.5134320464">
        <ele>53.4</ele>
        <time>2013-01-01T21:22:37Z</time>
      </trkpt>
      <trkpt lat="59.5957650617" lon="17.5138324499">
        <ele>56.8</ele>
        <time>2013-01-01T21:22:45Z</time>
      </trkpt>
      <trkpt lat="59.5957691688" lon="17.5138873514">
        <ele>57.2</ele>
        <time>2013-01-01T21:22:46Z</time>
      </trkpt>
      <trkpt lat="59.5957656484" lon="17.5141886808">
        <ele>59.6</ele>
        <time>2013-01-01T21:22:52Z</time>
      </trkpt>
      <trkpt lat="59.5957714319" lon="17.5142916944">
        <ele>59.8</ele>
        <time>2013-01-01T21:22:54Z</time>
      </trkpt>
      <trkpt lat="59.5957294386" lon="17.5144834723">
        <ele>60</ele>
        <time>2013-01-01T21:22:58Z</time>
      </trkpt>
      <trkpt lat="59.595718123" lon="17.5145287346">
        <ele>60</ele>
        <time>2013-01-01T21:22:59Z</time>
      </trkpt>
      <trkpt lat="59.5956123434" lon="17.5148321595">
        <ele>60.2</ele>
        <time>2013-01-01T21:23:04Z</time>
      </trkpt>
      <trkpt lat="59.595532883" lon="17.5151594728">
        <ele>60.4</ele>
        <time>2013-01-01T21:23:10Z</time>
      </trkpt>
      <trkpt lat="59.5954148658" lon="17.5154961739">
        <ele>60.4</ele>
        <time>2013-01-01T21:23:16Z</time>
      </trkpt>
      <trkpt lat="59.5952448808" lon="17.5157220662">
        <ele>60.6</ele>
        <time>2013-01-01T21:23:21Z</time>
      </trkpt>
      <trkpt lat="59.5951221697" lon="17.5157146901">
        <ele>60.6</ele>
        <time>2013-01-01T21:23:23Z</time>
      </trkpt>
      <trkpt lat="59.5950242691" lon="17.5156936515">
        <ele>60.8</ele>
        <time>2013-01-01T21:23:25Z</time>
      </trkpt>
      <trkpt lat="59.5949774981" lon="17.515694825">
        <ele>60.6</ele>
        <time>2013-01-01T21:23:26Z</time>
      </trkpt>
      <trkpt lat="59.5948380232" lon="17.5156362355">
        <ele>60.2</ele>
        <time>2013-01-01T21:23:29Z</time>
      </trkpt>
      <trkpt lat="59.5947010629" lon="17.5155573618">
        <ele>59.4</ele>
        <time>2013-01-01T21:23:32Z</time>
      </trkpt>
      <trkpt lat="59.5946619194" lon="17.5155329704">
        <ele>59.2</ele>
        <time>2013-01-01T21:23:33Z</time>
      </trkpt>
      <trkpt lat="59.5945405494" lon="17.515451666">
        <ele>58.6</ele>
        <time>2013-01-01T21:23:36Z</time>
      </trkpt>
      <trkpt lat="59.5944662858" lon="17.5153947528">
        <ele>58</ele>
        <time>2013-01-01T21:23:38Z</time>
      </trkpt>
      <trkpt lat="59.5942675509" lon="17.5152245164">
        <ele>56.4</ele>
        <time>2013-01-01T21:23:42Z</time>
      </trkpt>
      <trkpt lat="59.5941122342" lon="17.5150697865">
        <ele>55.2</ele>
        <time>2013-01-01T21:23:45Z</time>
      </trkpt>
      <trkpt lat="59.5940574165" lon="17.5149989594">
        <ele>54.6</ele>
        <time>2013-01-01T21:23:46Z</time>
      </trkpt>
      <trkpt lat="59.5939110685" lon="17.5147490948">
        <ele>53</ele>
        <time>2013-01-01T21:23:49Z</time>
      </trkpt>
      <trkpt lat="59.5938519761" lon="17.5146681257">
        <ele>52.6</ele>
        <time>2013-01-01T21:23:50Z</time>
      </trkpt>
      <trkpt lat="59.5937307738" lon="17.51455958">
        <ele>51.8</ele>
        <time>2013-01-01T21:23:52Z</time>
      </trkpt>
      <trkpt lat="59.5935389958" lon="17.5145939458">
        <ele>51.4</ele>
        <time>2013-01-01T21:23:55Z</time>
      </trkpt>
      <trkpt lat="59.593362473" lon="17.5146948639">
        <ele>51.6</ele>
        <time>2013-01-01T21:23:58Z</time>
      </trkpt>
      <trkpt lat="59.5932320505" lon="17.5148305669">
        <ele>51.6</ele>
        <time>2013-01-01T21:24:01Z</time>
      </trkpt>
      <trkpt lat="59.5931978524" lon="17.5148924254">
        <ele>51.8</ele>
        <time>2013-01-01T21:24:02Z</time>
      </trkpt>
      <trkpt lat="59.5931276958" lon="17.5150233507">
        <ele>52</ele>
        <time>2013-01-01T21:24:04Z</time>
      </trkpt>
      <trkpt lat="59.593078997" lon="17.5151962694">
        <ele>52.4</ele>
        <time>2013-01-01T21:24:07Z</time>
      </trkpt>
      <trkpt lat="59.5930605568" lon="17.5152616482">
        <ele>52.6</ele>
        <time>2013-01-01T21:24:08Z</time>
      </trkpt>
      <trkpt lat="59.5930426195" lon="17.5153259374">
        <ele>52.8</ele>
        <time>2013-01-01T21:24:09Z</time>
      </trkpt>
      <trkpt lat="59.5929929987" lon="17.5155355688">
        <ele>53.4</ele>
        <time>2013-01-01T21:24:13Z</time>
      </trkpt>
      <trkpt lat="59.5929257758" lon="17.5158526562">
        <ele>54</ele>
        <time>2013-01-01T21:24:20Z</time>
      </trkpt>
      <trkpt lat="59.5929127838" lon="17.5159054622">
        <ele>54</ele>
        <time>2013-01-01T21:24:21Z</time>
      </trkpt>
      <trkpt lat="59.5927897375" lon="17.5161782932">
        <ele>53.8</ele>
        <time>2013-01-01T21:24:27Z</time>
      </trkpt>
      <trkpt lat="59.5926810242" lon="17.5164703187">
        <ele>53.8</ele>
        <time>2013-01-01T21:24:33Z</time>
      </trkpt>
      <trkpt lat="59.5926448982" lon="17.5168386195">
        <ele>54.4</ele>
        <time>2013-01-01T21:24:40Z</time>
      </trkpt>
      <trkpt lat="59.5926512685" lon="17.5170095265">
        <ele>54.8</ele>
        <time>2013-01-01T21:24:44Z</time>
      </trkpt>
      <trkpt lat="59.5926217642" lon="17.5172115304">
        <ele>55</ele>
        <time>2013-01-01T21:24:48Z</time>
      </trkpt>
      <trkpt lat="59.5926011447" lon="17.5173858739">
        <ele>55.2</ele>
        <time>2013-01-01T21:24:51Z</time>
      </trkpt>
      <trkpt lat="59.5925911702" lon="17.5176157895">
        <ele>55.2</ele>
        <time>2013-01-01T21:24:55Z</time>
      </trkpt>
      <trkpt lat="59.5925876498" lon="17.5179783907">
        <ele>54.8</ele>
        <time>2013-01-01T21:25:03Z</time>
      </trkpt>
      <trkpt lat="59.592592176" lon="17.5179664884">
        <ele>54.8</ele>
        <time>2013-01-01T21:25:04Z</time>
      </trkpt>
      <trkpt lat="59.5925909188" lon="17.5178572722">
        <ele>55</ele>
        <time>2013-01-01T21:25:08Z</time>
      </trkpt>
      <trkpt lat="59.5925892424" lon="17.5176205672">
        <ele>55.2</ele>
        <time>2013-01-01T21:25:13Z</time>
      </trkpt>
      <trkpt lat="59.5926201716" lon="17.5172632467">
        <ele>55</ele>
        <time>2013-01-01T21:25:18Z</time>
      </trkpt>
      <trkpt lat="59.5926467422" lon="17.5168428943">
        <ele>54.4</ele>
        <time>2013-01-01T21:25:23Z</time>
      </trkpt>
      <trkpt lat="59.592669541" lon="17.5166337658">
        <ele>54</ele>
        <time>2013-01-01T21:25:25Z</time>
      </trkpt>
      <trkpt lat="59.5927086845" lon="17.5164063647">
        <ele>53.8</ele>
        <time>2013-01-01T21:25:27Z</time>
      </trkpt>
      <trkpt lat="59.5927975327" lon="17.5160829909">
        <ele>53.6</ele>
        <time>2013-01-01T21:25:30Z</time>
      </trkpt>
      <trkpt lat="59.5928301383" lon="17.5159814861">
        <ele>53.6</ele>
        <time>2013-01-01T21:25:31Z</time>
      </trkpt>
      <trkpt lat="59.5928913262" lon="17.5157538336">
        <ele>53.4</ele>
        <time>2013-01-01T21:25:33Z</time>
      </trkpt>
      <trkpt lat="59.5929811802" lon="17.5153807551">
        <ele>52.6</ele>
        <time>2013-01-01T21:25:36Z</time>
      </trkpt>
      <trkpt lat="59.5930862892" lon="17.5150225963">
        <ele>51.8</ele>
        <time>2013-01-01T21:25:39Z</time>
      </trkpt>
      <trkpt lat="59.5932002831" lon="17.5146819558">
        <ele>51</ele>
        <time>2013-01-01T21:25:42Z</time>
      </trkpt>
      <trkpt lat="59.5933642332" lon="17.5145270582">
        <ele>50.8</ele>
        <time>2013-01-01T21:25:45Z</time>
      </trkpt>
      <trkpt lat="59.5935141854" lon="17.514472995">
        <ele>50.8</ele>
        <time>2013-01-01T21:25:48Z</time>
      </trkpt>
      <trkpt lat="59.5935626328" lon="17.5144576561">
        <ele>50.8</ele>
        <time>2013-01-01T21:25:49Z</time>
      </trkpt>
      <trkpt lat="59.5937013533" lon="17.5144621823">
        <ele>51.2</ele>
        <time>2013-01-01T21:25:52Z</time>
      </trkpt>
      <trkpt lat="59.5937424246" lon="17.5144755933">
        <ele>51.4</ele>
        <time>2013-01-01T21:25:53Z</time>
      </trkpt>
      <trkpt lat="59.5937773772" lon="17.5145143177">
        <ele>51.6</ele>
        <time>2013-01-01T21:25:54Z</time>
      </trkpt>
      <trkpt lat="59.5938643813" lon="17.5146523677">
        <ele>52.6</ele>
        <time>2013-01-01T21:25:57Z</time>
      </trkpt>
      <trkpt lat="59.5939134993" lon="17.5147692952">
        <ele>53.2</ele>
        <time>2013-01-01T21:26:00Z</time>
      </trkpt>
      <trkpt lat="59.5940588415" lon="17.5149665214">
        <ele>54.4</ele>
        <time>2013-01-01T21:26:05Z</time>
      </trkpt>
      <trkpt lat="59.5942369569" lon="17.5151413679">
        <ele>56</ele>
        <time>2013-01-01T21:26:11Z</time>
      </trkpt>
      <trkpt lat="59.5944038406" lon="17.5153013784">
        <ele>57.4</ele>
        <time>2013-01-01T21:26:18Z</time>
      </trkpt>
      <trkpt lat="59.5944266394" lon="17.515340941">
        <ele>57.8</ele>
        <time>2013-01-01T21:26:20Z</time>
      </trkpt>
      <trkpt lat="59.5945692994" lon="17.5154695194">
        <ele>58.8</ele>
        <time>2013-01-01T21:26:27Z</time>
      </trkpt>
      <trkpt lat="59.5947628375" lon="17.5155652408">
        <ele>59.8</ele>
        <time>2013-01-01T21:26:35Z</time>
      </trkpt>
      <trkpt lat="59.5949493349" lon="17.5156048872">
        <ele>60.4</ele>
        <time>2013-01-01T21:26:41Z</time>
      </trkpt>
      <trkpt lat="59.5951268636" lon="17.5156154484">
        <ele>60.6</ele>
        <time>2013-01-01T21:26:47Z</time>
      </trkpt>
      <trkpt lat="59.5953053981" lon="17.515531797">
        <ele>60.4</ele>
        <time>2013-01-01T21:26:53Z</time>
      </trkpt>
      <trkpt lat="59.5953959227" lon="17.5153642427">
        <ele>60.4</ele>
        <time>2013-01-01T21:26:58Z</time>
      </trkpt>
      <trkpt lat="59.5954449568" lon="17.5152868778">
        <ele>60.4</ele>
        <time>2013-01-01T21:27:00Z</time>
      </trkpt>
      <trkpt lat="59.5955631416" lon="17.5150001328">
        <ele>60.6</ele>
        <time>2013-01-01T21:27:06Z</time>
      </trkpt>
      <trkpt lat="59.5956182946" lon="17.5146391243">
        <ele>59.8</ele>
        <time>2013-01-01T21:27:11Z</time>
      </trkpt>
      <trkpt lat="59.5956916362" lon="17.5142852403">
        <ele>59.4</ele>
        <time>2013-01-01T21:27:16Z</time>
      </trkpt>
      <trkpt lat="59.5956944861" lon="17.5138530694">
        <ele>56.6</ele>
        <time>2013-01-01T21:27:21Z</time>
      </trkpt>
      <trkpt lat="59.5957075618" lon="17.5134870317">
        <ele>53.8</ele>
        <time>2013-01-01T21:27:24Z</time>
      </trkpt>
      <trkpt lat="59.5957233198" lon="17.5131921563">
        <ele>50.8</ele>
        <time>2013-01-01T21:27:26Z</time>
      </trkpt>
      <trkpt lat="59.5957490522" lon="17.513065422">
        <ele>49.4</ele>
        <time>2013-01-01T21:27:27Z</time>
      </trkpt>
      <trkpt lat="59.5959113259" lon="17.5127852987">
        <ele>46.8</ele>
        <time>2013-01-01T21:27:30Z</time>
      </trkpt>
      <trkpt lat="59.5960401557" lon="17.5127121247">
        <ele>46.8</ele>
        <time>2013-01-01T21:27:32Z</time>
      </trkpt>
      <trkpt lat="59.5961035229" lon="17.512676334">
        <ele>47</ele>
        <time>2013-01-01T21:27:33Z</time>
      </trkpt>
      <trkpt lat="59.5963390544" lon="17.512581367">
        <ele>47.8</ele>
        <time>2013-01-01T21:27:37Z</time>
      </trkpt>
      <trkpt lat="59.5965704788" lon="17.5125449896">
        <ele>49.4</ele>
        <time>2013-01-01T21:27:41Z</time>
      </trkpt>
      <trkpt lat="59.5967753325" lon="17.5125137251">
        <ele>50.4</ele>
        <time>2013-01-01T21:27:45Z</time>
      </trkpt>
      <trkpt lat="59.5968178287" lon="17.512503583">
        <ele>50.6</ele>
        <time>2013-01-01T21:27:46Z</time>
      </trkpt>
      <trkpt lat="59.5969622489" lon="17.5124490168">
        <ele>51</ele>
        <time>2013-01-01T21:27:49Z</time>
      </trkpt>
      <trkpt lat="59.5971383527" lon="17.5123957917">
        <ele>51.4</ele>
        <time>2013-01-01T21:27:52Z</time>
      </trkpt>
      <trkpt lat="59.5973582938" lon="17.512304429">
        <ele>52</ele>
        <time>2013-01-01T21:27:57Z</time>
      </trkpt>
      <trkpt lat="59.5974065736" lon="17.5122783612">
        <ele>52</ele>
        <time>2013-01-01T21:27:58Z</time>
      </trkpt>
      <trkpt lat="59.5975649916" lon="17.5122115575">
        <ele>52.2</ele>
        <time>2013-01-01T21:28:02Z</time>
      </trkpt>
      <trkpt lat="59.5977468789" lon="17.5120916963">
        <ele>51.8</ele>
        <time>2013-01-01T21:28:06Z</time>
      </trkpt>
      <trkpt lat="59.5977928955" lon="17.5120513793">
        <ele>51.8</ele>
        <time>2013-01-01T21:28:07Z</time>
      </trkpt>
      <trkpt lat="59.5979195461" lon="17.5119230524">
        <ele>51.2</ele>
        <time>2013-01-01T21:28:10Z</time>
      </trkpt>
      <trkpt lat="59.5979608689" lon="17.5118601881">
        <ele>51</ele>
        <time>2013-01-01T21:28:11Z</time>
      </trkpt>
      <trkpt lat="59.598078467" lon="17.5116571784">
        <ele>50.2</ele>
        <time>2013-01-01T21:28:14Z</time>
      </trkpt>
      <trkpt lat="59.5981574245" lon="17.5115130935">
        <ele>48.8</ele>
        <time>2013-01-01T21:28:16Z</time>
      </trkpt>
      <trkpt lat="59.5982566662" lon="17.5113684218">
        <ele>47.8</ele>
        <time>2013-01-01T21:28:18Z</time>
      </trkpt>
      <trkpt lat="59.5984304231" lon="17.5111533422">
        <ele>46</ele>
        <time>2013-01-01T21:28:21Z</time>
      </trkpt>
      <trkpt lat="59.5986179262" lon="17.5110311341">
        <ele>45</ele>
        <time>2013-01-01T21:28:24Z</time>
      </trkpt>
      <trkpt lat="59.598813476" lon="17.5109560322">
        <ele>44.6</ele>
        <time>2013-01-01T21:28:27Z</time>
      </trkpt>
      <trkpt lat="59.5989954472" lon="17.5108175632">
        <ele>43.6</ele>
        <time>2013-01-01T21:28:31Z</time>
      </trkpt>
      <trkpt lat="59.599037692" lon="17.5107875559">
        <ele>43.4</ele>
        <time>2013-01-01T21:28:32Z</time>
      </trkpt>
      <trkpt lat="59.5992017258" lon="17.5108465645">
        <ele>44</ele>
        <time>2013-01-01T21:28:35Z</time>
      </trkpt>
      <trkpt lat="59.5992522687" lon="17.5108901504">
        <ele>44.2</ele>
        <time>2013-01-01T21:28:36Z</time>
      </trkpt>
      <trkpt lat="59.5993935876" lon="17.5110773183">
        <ele>45.2</ele>
        <time>2013-01-01T21:28:39Z</time>
      </trkpt>
      <trkpt lat="59.599489728" lon="17.5114017818">
        <ele>47</ele>
        <time>2013-01-01T21:28:44Z</time>
      </trkpt>
      <trkpt lat="59.5995047316" lon="17.5116737746">
        <ele>48.4</ele>
        <time>2013-01-01T21:28:48Z</time>
      </trkpt>
      <trkpt lat="59.5994930808" lon="17.5117956474">
        <ele>48.8</ele>
        <time>2013-01-01T21:28:50Z</time>
      </trkpt>
      <trkpt lat="59.5994118601" lon="17.5121444184">
        <ele>50.2</ele>
        <time>2013-01-01T21:28:56Z</time>
      </trkpt>
      <trkpt lat="59.5992579684" lon="17.5123383757">
        <ele>51.8</ele>
        <time>2013-01-01T21:29:02Z</time>
      </trkpt>
      <trkpt lat="59.5991338324" lon="17.512598969">
        <ele>53</ele>
        <time>2013-01-01T21:29:08Z</time>
      </trkpt>
      <trkpt lat="59.5991106983" lon="17.5129692815">
        <ele>53</ele>
        <time>2013-01-01T21:29:14Z</time>
      </trkpt>
      <trkpt lat="59.5990700461" lon="17.513334062">
        <ele>53.2</ele>
        <time>2013-01-01T21:29:19Z</time>
      </trkpt>
      <trkpt lat="59.598934846" lon="17.5136604533">
        <ele>52.4</ele>
        <time>2013-01-01T21:29:28Z</time>
      </trkpt>
      <trkpt lat="59.5987967961" lon="17.5138125848">
        <ele>52.6</ele>
        <time>2013-01-01T21:29:34Z</time>
      </trkpt>
      <trkpt lat="59.5987623464" lon="17.5138315279">
        <ele>52.8</ele>
        <time>2013-01-01T21:29:36Z</time>
      </trkpt>
      <trkpt lat="59.5986776892" lon="17.5138316955">
        <ele>53.4</ele>
        <time>2013-01-01T21:29:39Z</time>
      </trkpt>
      <trkpt lat="59.5986211952" lon="17.5138713419">
        <ele>53.6</ele>
        <time>2013-01-01T21:29:43Z</time>
      </trkpt>
      <trkpt lat="59.5986589976" lon="17.5138658937">
        <ele>53.4</ele>
        <time>2013-01-01T21:29:46Z</time>
      </trkpt>
      <trkpt lat="59.5988152362" lon="17.5137371477">
        <ele>52.8</ele>
        <time>2013-01-01T21:29:51Z</time>
      </trkpt>
      <trkpt lat="59.5989571419" lon="17.51348502">
        <ele>53</ele>
        <time>2013-01-01T21:29:54Z</time>
      </trkpt>
      <trkpt lat="59.5990603231" lon="17.5131628197">
        <ele>53.2</ele>
        <time>2013-01-01T21:29:57Z</time>
      </trkpt>
      <trkpt lat="59.5991078485" lon="17.5129379332">
        <ele>53</ele>
        <time>2013-01-01T21:29:59Z</time>
      </trkpt>
      <trkpt lat="59.5991222654" lon="17.5127553754">
        <ele>53</ele>
        <time>2013-01-01T21:30:01Z</time>
      </trkpt>
      <trkpt lat="59.5991287194" lon="17.5124956202">
        <ele>53</ele>
        <time>2013-01-01T21:30:04Z</time>
      </trkpt>
      <trkpt lat="59.5991459861" lon="17.5123602524">
        <ele>52.6</ele>
        <time>2013-01-01T21:30:06Z</time>
      </trkpt>
      <trkpt lat="59.5992853772" lon="17.5121813826">
        <ele>51.2</ele>
        <time>2013-01-01T21:30:10Z</time>
      </trkpt>
      <trkpt lat="59.599325778" lon="17.5121433288">
        <ele>50.8</ele>
        <time>2013-01-01T21:30:11Z</time>
      </trkpt>
      <trkpt lat="59.5993739739" lon="17.512095049">
        <ele>50.4</ele>
        <time>2013-01-01T21:30:12Z</time>
      </trkpt>
      <trkpt lat="59.5994540211" lon="17.5119847432">
        <ele>49.4</ele>
        <time>2013-01-01T21:30:14Z</time>
      </trkpt>
      <trkpt lat="59.599480927" lon="17.5119260699">
        <ele>49.2</ele>
        <time>2013-01-01T21:30:15Z</time>
      </trkpt>
      <trkpt lat="59.5994925778" lon="17.5118565839">
        <ele>49</ele>
        <time>2013-01-01T21:30:16Z</time>
      </trkpt>
      <trkpt lat="59.599483693" lon="17.5115238223">
        <ele>47.8</ele>
        <time>2013-01-01T21:30:20Z</time>
      </trkpt>
      <trkpt lat="59.5994151291" lon="17.5111933239">
        <ele>46</ele>
        <time>2013-01-01T21:30:24Z</time>
      </trkpt>
      <trkpt lat="59.5993551984" lon="17.5110452995">
        <ele>45.2</ele>
        <time>2013-01-01T21:30:26Z</time>
      </trkpt>
      <trkpt lat="59.5993217546" lon="17.5109960977">
        <ele>44.8</ele>
        <time>2013-01-01T21:30:27Z</time>
      </trkpt>
      <trkpt lat="59.5992438868" lon="17.5109344907">
        <ele>44.6</ele>
        <time>2013-01-01T21:30:29Z</time>
      </trkpt>
      <trkpt lat="59.5991596486" lon="17.5108973589">
        <ele>44.4</ele>
        <time>2013-01-01T21:30:31Z</time>
      </trkpt>
      <trkpt lat="59.599116398" lon="17.510887133">
        <ele>44.2</ele>
        <time>2013-01-01T21:30:32Z</time>
      </trkpt>
      <trkpt lat="59.599048337" lon="17.5109124463">
        <ele>44.4</ele>
        <time>2013-01-01T21:30:34Z</time>
      </trkpt>
      <trkpt lat="59.5989930164" lon="17.510973718">
        <ele>45</ele>
        <time>2013-01-01T21:30:36Z</time>
      </trkpt>
      <trkpt lat="59.5988659468" lon="17.5110892206">
        <ele>45.8</ele>
        <time>2013-01-01T21:30:41Z</time>
      </trkpt>
      <trkpt lat="59.5986897592" lon="17.511185864">
        <ele>46.6</ele>
        <time>2013-01-01T21:30:47Z</time>
      </trkpt>
      <trkpt lat="59.5985736698" lon="17.5112074893">
        <ele>46.6</ele>
        <time>2013-01-01T21:30:50Z</time>
      </trkpt>
      <trkpt lat="59.5984918624" lon="17.5112677552">
        <ele>47.2</ele>
        <time>2013-01-01T21:30:52Z</time>
      </trkpt>
      <trkpt lat="59.5982984919" lon="17.5114741176">
        <ele>49</ele>
        <time>2013-01-01T21:30:58Z</time>
      </trkpt>
      <trkpt lat="59.5981287584" lon="17.5116842519">
        <ele>50.4</ele>
        <time>2013-01-01T21:31:05Z</time>
      </trkpt>
      <trkpt lat="59.5980060473" lon="17.5118437596">
        <ele>51</ele>
        <time>2013-01-01T21:31:10Z</time>
      </trkpt>
      <trkpt lat="59.5979645569" lon="17.5119248964">
        <ele>51.4</ele>
        <time>2013-01-01T21:31:12Z</time>
      </trkpt>
      <trkpt lat="59.5978403371" lon="17.5120779499">
        <ele>52</ele>
        <time>2013-01-01T21:31:17Z</time>
      </trkpt>
      <trkpt lat="59.5977909677" lon="17.5121192727">
        <ele>52.2</ele>
        <time>2013-01-01T21:31:19Z</time>
      </trkpt>
      <trkpt lat="59.5975915622" lon="17.5122500304">
        <ele>52.6</ele>
        <time>2013-01-01T21:31:26Z</time>
      </trkpt>
      <trkpt lat="59.5973842777" lon="17.5123288203">
        <ele>52.2</ele>
        <time>2013-01-01T21:31:32Z</time>
      </trkpt>
      <trkpt lat="59.5971968584" lon="17.5124370307">
        <ele>52</ele>
        <time>2013-01-01T21:31:37Z</time>
      </trkpt>
      <trkpt lat="59.5969891548" lon="17.5125504378">
        <ele>51.6</ele>
        <time>2013-01-01T21:31:42Z</time>
      </trkpt>
      <trkpt lat="59.5968938526" lon="17.512580948">
        <ele>51.4</ele>
        <time>2013-01-01T21:31:44Z</time>
      </trkpt>
      <trkpt lat="59.5967740752" lon="17.512602238">
        <ele>51</ele>
        <time>2013-01-01T21:31:47Z</time>
      </trkpt>
      <trkpt lat="59.5966365281" lon="17.5126141403">
        <ele>50.4</ele>
        <time>2013-01-01T21:31:50Z</time>
      </trkpt>
      <trkpt lat="59.5965939481" lon="17.512611961">
        <ele>50</ele>
        <time>2013-01-01T21:31:51Z</time>
      </trkpt>
      <trkpt lat="59.5964049362" lon="17.5126191694">
        <ele>48.6</ele>
        <time>2013-01-01T21:31:56Z</time>
      </trkpt>
      <trkpt lat="59.5962228812" lon="17.5126600731">
        <ele>47.6</ele>
        <time>2013-01-01T21:32:01Z</time>
      </trkpt>
      <trkpt lat="59.5960448496" lon="17.5127734803">
        <ele>47.6</ele>
        <time>2013-01-01T21:32:06Z</time>
      </trkpt>
      <trkpt lat="59.5958777983" lon="17.5129239354">
        <ele>48.2</ele>
        <time>2013-01-01T21:32:12Z</time>
      </trkpt>
      <trkpt lat="59.5957651455" lon="17.5131778233">
        <ele>50.8</ele>
        <time>2013-01-01T21:32:18Z</time>
      </trkpt>
      <trkpt lat="59.5957569312" lon="17.5132322218">
        <ele>51.4</ele>
        <time>2013-01-01T21:32:19Z</time>
      </trkpt>
      <trkpt lat="59.5957739465" lon="17.5136209745">
        <ele>55</ele>
        <time>2013-01-01T21:32:27Z</time>
      </trkpt>
      <trkpt lat="59.5957691688" lon="17.5136699248">
        <ele>55.4</ele>
        <time>2013-01-01T21:32:28Z</time>
      </trkpt>
      <trkpt lat="59.5957569312" lon="17.5139770377">
        <ele>58</ele>
        <time>2013-01-01T21:32:34Z</time>
      </trkpt>
      <trkpt lat="59.5957669895" lon="17.5143249705">
        <ele>59.8</ele>
        <time>2013-01-01T21:32:41Z</time>
      </trkpt>
      <trkpt lat="59.5957184583" lon="17.5146983843">
        <ele>60.2</ele>
        <time>2013-01-01T21:32:48Z</time>
      </trkpt>
      <trkpt lat="59.5956617966" lon="17.5150445569">
        <ele>60.6</ele>
        <time>2013-01-01T21:32:54Z</time>
      </trkpt>
      <trkpt lat="59.5955553465" lon="17.5153447967">
        <ele>60.4</ele>
        <time>2013-01-01T21:33:00Z</time>
      </trkpt>
      <trkpt lat="59.5954322163" lon="17.5156534184">
        <ele>60.4</ele>
        <time>2013-01-01T21:33:06Z</time>
      </trkpt>
      <trkpt lat="59.5952124428" lon="17.5157438591">
        <ele>60.6</ele>
        <time>2013-01-01T21:33:11Z</time>
      </trkpt>
      <trkpt lat="59.5950832777" lon="17.5157324597">
        <ele>60.8</ele>
        <time>2013-01-01T21:33:13Z</time>
      </trkpt>
      <trkpt lat="59.59502846" lon="17.5157121755">
        <ele>60.8</ele>
        <time>2013-01-01T21:33:14Z</time>
      </trkpt>
      <trkpt lat="59.5948228519" lon="17.5156432763">
        <ele>60.2</ele>
        <time>2013-01-01T21:33:18Z</time>
      </trkpt>
      <trkpt lat="59.594653286" lon="17.5155111775">
        <ele>59.2</ele>
        <time>2013-01-01T21:33:22Z</time>
      </trkpt>
      <trkpt lat="59.5944628492" lon="17.5153831858">
        <ele>58</ele>
        <time>2013-01-01T21:33:26Z</time>
      </trkpt>
      <trkpt lat="59.5942552295" lon="17.5151842833">
        <ele>56.2</ele>
        <time>2013-01-01T21:33:30Z</time>
      </trkpt>
      <trkpt lat="59.5940624457" lon="17.515056124">
        <ele>55</ele>
        <time>2013-01-01T21:33:33Z</time>
      </trkpt>
      <trkpt lat="59.5939686522" lon="17.5148607418">
        <ele>53.8</ele>
        <time>2013-01-01T21:33:35Z</time>
      </trkpt>
      <trkpt lat="59.5939217974" lon="17.5147533696">
        <ele>53.2</ele>
        <time>2013-01-01T21:33:36Z</time>
      </trkpt>
      <trkpt lat="59.5937577635" lon="17.5144917704">
        <ele>51.4</ele>
        <time>2013-01-01T21:33:39Z</time>
      </trkpt>
      <trkpt lat="59.5935452823" lon="17.5145810377">
        <ele>51.4</ele>
        <time>2013-01-01T21:33:42Z</time>
      </trkpt>
      <trkpt lat="59.5934001915" lon="17.5147117954">
        <ele>51.6</ele>
        <time>2013-01-01T21:33:44Z</time>
      </trkpt>
      <trkpt lat="59.5933341421" lon="17.5147649366">
        <ele>51.8</ele>
        <time>2013-01-01T21:33:45Z</time>
      </trkpt>
      <trkpt lat="59.5932452939" lon="17.5148472469">
        <ele>51.8</ele>
        <time>2013-01-01T21:33:47Z</time>
      </trkpt>
      <trkpt lat="59.5931738801" lon="17.5149772502">
        <ele>52</ele>
        <time>2013-01-01T21:33:49Z</time>
      </trkpt>
      <trkpt lat="59.5931186434" lon="17.5151132885">
        <ele>52.4</ele>
        <time>2013-01-01T21:33:51Z</time>
      </trkpt>
      <trkpt lat="59.5930615626" lon="17.5153234228">
        <ele>52.8</ele>
        <time>2013-01-01T21:33:54Z</time>
      </trkpt>
      <trkpt lat="59.5929868799" lon="17.5156724453">
        <ele>53.8</ele>
        <time>2013-01-01T21:33:59Z</time>
      </trkpt>
      <trkpt lat="59.5929453894" lon="17.5160354655">
        <ele>54.6</ele>
        <time>2013-01-01T21:34:05Z</time>
      </trkpt>
      <trkpt lat="59.5929118618" lon="17.5161311869">
        <ele>54.6</ele>
        <time>2013-01-01T21:34:07Z</time>
      </trkpt>
      <trkpt lat="59.5928311441" lon="17.5163411535">
        <ele>54.6</ele>
        <time>2013-01-01T21:34:11Z</time>
      </trkpt>
      <trkpt lat="59.5926851314" lon="17.5166222826">
        <ele>54.2</ele>
        <time>2013-01-01T21:34:18Z</time>
      </trkpt>
      <trkpt lat="59.5926481672" lon="17.5169888232">
        <ele>54.6</ele>
        <time>2013-01-01T21:34:25Z</time>
      </trkpt>
      <trkpt lat="59.5926187467" lon="17.5173466466">
        <ele>55.2</ele>
        <time>2013-01-01T21:34:32Z</time>
      </trkpt>
      <trkpt lat="59.5925808605" lon="17.5177264307">
        <ele>55</ele>
        <time>2013-01-01T21:34:39Z</time>
      </trkpt>
      <trkpt lat="59.5925745741" lon="17.5180089846">
        <ele>54.6</ele>
        <time>2013-01-01T21:34:45Z</time>
      </trkpt>
      <trkpt lat="59.5925774239" lon="17.5179251656">
        <ele>54.8</ele>
        <time>2013-01-01T21:34:49Z</time>
      </trkpt>
      <trkpt lat="59.5925731491" lon="17.5177509896">
        <ele>55</ele>
        <time>2013-01-01T21:34:54Z</time>
      </trkpt>
      <trkpt lat="59.5925810281" lon="17.5175398495">
        <ele>55.4</ele>
        <time>2013-01-01T21:34:58Z</time>
      </trkpt>
      <trkpt lat="59.5925923437" lon="17.5171451457">
        <ele>54.6</ele>
        <time>2013-01-01T21:35:05Z</time>
      </trkpt>
      <trkpt lat="59.5926140528" lon="17.5167279784">
        <ele>53.8</ele>
        <time>2013-01-01T21:35:10Z</time>
      </trkpt>
      <trkpt lat="59.5926428866" lon="17.5165077858">
        <ele>53.6</ele>
        <time>2013-01-01T21:35:12Z</time>
      </trkpt>
      <trkpt lat="59.5927078463" lon="17.5163022615">
        <ele>53.6</ele>
        <time>2013-01-01T21:35:14Z</time>
      </trkpt>
      <trkpt lat="59.5928201638" lon="17.5159915444">
        <ele>53.6</ele>
        <time>2013-01-01T21:35:17Z</time>
      </trkpt>
      <trkpt lat="59.5928868838" lon="17.5157380756">
        <ele>53.4</ele>
        <time>2013-01-01T21:35:19Z</time>
      </trkpt>
      <trkpt lat="59.5929188188" lon="17.5156071503">
        <ele>53</ele>
        <time>2013-01-01T21:35:20Z</time>
      </trkpt>
      <trkpt lat="59.5930190664" lon="17.5152293779">
        <ele>52.2</ele>
        <time>2013-01-01T21:35:23Z</time>
      </trkpt>
      <trkpt lat="59.5931438729" lon="17.5148750748">
        <ele>51.4</ele>
        <time>2013-01-01T21:35:26Z</time>
      </trkpt>
      <trkpt lat="59.5931912307" lon="17.5147743244">
        <ele>51.2</ele>
        <time>2013-01-01T21:35:27Z</time>
      </trkpt>
      <trkpt lat="59.5932919811" lon="17.5146251265">
        <ele>51</ele>
        <time>2013-01-01T21:35:29Z</time>
      </trkpt>
      <trkpt lat="59.5934853517" lon="17.5144977216">
        <ele>50.8</ele>
        <time>2013-01-01T21:35:33Z</time>
      </trkpt>
      <trkpt lat="59.5936930552" lon="17.5144675467">
        <ele>51.2</ele>
        <time>2013-01-01T21:35:38Z</time>
      </trkpt>
      <trkpt lat="59.5937602781" lon="17.514519766">
        <ele>51.6</ele>
        <time>2013-01-01T21:35:40Z</time>
      </trkpt>
      <trkpt lat="59.5938245673" lon="17.5146045908">
        <ele>52.2</ele>
        <time>2013-01-01T21:35:42Z</time>
      </trkpt>
      <trkpt lat="59.5938500483" lon="17.5146497693">
        <ele>52.4</ele>
        <time>2013-01-01T21:35:43Z</time>
      </trkpt>
      <trkpt lat="59.5940043591" lon="17.5148785952">
        <ele>54</ele>
        <time>2013-01-01T21:35:50Z</time>
      </trkpt>
      <trkpt lat="59.5941431634" lon="17.5151613168">
        <ele>55.6</ele>
        <time>2013-01-01T21:35:56Z</time>
      </trkpt>
      <trkpt lat="59.5943044312" lon="17.5153394323">
        <ele>57.2</ele>
        <time>2013-01-01T21:36:02Z</time>
      </trkpt>
      <trkpt lat="59.5944761764" lon="17.5154279452">
        <ele>58.2</ele>
        <time>2013-01-01T21:36:10Z</time>
      </trkpt>
      <trkpt lat="59.5944890846" lon="17.5154327229">
        <ele>58.4</ele>
        <time>2013-01-01T21:36:11Z</time>
      </trkpt>
      <trkpt lat="59.59457919" lon="17.5154761411">
        <ele>58.8</ele>
        <time>2013-01-01T21:36:15Z</time>
      </trkpt>
      <trkpt lat="59.5946617518" lon="17.5155331381">
        <ele>59.2</ele>
        <time>2013-01-01T21:36:18Z</time>
      </trkpt>
      <trkpt lat="59.5948421303" lon="17.5156152807">
        <ele>60.2</ele>
        <time>2013-01-01T21:36:24Z</time>
      </trkpt>
      <trkpt lat="59.5949266199" lon="17.5155997742">
        <ele>60.4</ele>
        <time>2013-01-01T21:36:27Z</time>
      </trkpt>
      <trkpt lat="59.59502385" lon="17.515638331">
        <ele>60.6</ele>
        <time>2013-01-01T21:36:30Z</time>
      </trkpt>
      <trkpt lat="59.5950597245" lon="17.5156540889">
        <ele>60.6</ele>
        <time>2013-01-01T21:36:31Z</time>
      </trkpt>
      <trkpt lat="59.59522116" lon="17.5156463776">
        <ele>60.6</ele>
        <time>2013-01-01T21:36:36Z</time>
      </trkpt>
      <trkpt lat="59.5953908935" lon="17.5154335611">
        <ele>60.4</ele>
        <time>2013-01-01T21:36:43Z</time>
      </trkpt>
      <trkpt lat="59.5955287758" lon="17.5151120313">
        <ele>60.4</ele>
        <time>2013-01-01T21:36:50Z</time>
      </trkpt>
      <trkpt lat="59.5956080686" lon="17.5147866458">
        <ele>60.2</ele>
        <time>2013-01-01T21:36:55Z</time>
      </trkpt>
      <trkpt lat="59.5956661552" lon="17.5144409761">
        <ele>59.6</ele>
        <time>2013-01-01T21:37:00Z</time>
      </trkpt>
      <trkpt lat="59.5956908818" lon="17.5140531454">
        <ele>58.2</ele>
        <time>2013-01-01T21:37:05Z</time>
      </trkpt>
      <trkpt lat="59.5957018621" lon="17.5137542468">
        <ele>55.8</ele>
        <time>2013-01-01T21:37:08Z</time>
      </trkpt>
      <trkpt lat="59.5957071427" lon="17.5136280991">
        <ele>54.8</ele>
        <time>2013-01-01T21:37:09Z</time>
      </trkpt>
      <trkpt lat="59.5957312826" lon="17.5132157933">
        <ele>51.2</ele>
        <time>2013-01-01T21:37:12Z</time>
      </trkpt>
      <trkpt lat="59.5958469529" lon="17.5128558744">
        <ele>47.2</ele>
        <time>2013-01-01T21:37:15Z</time>
      </trkpt>
      <trkpt lat="59.5960355457" lon="17.5126867276">
        <ele>46.6</ele>
        <time>2013-01-01T21:37:18Z</time>
      </trkpt>
      <trkpt lat="59.5962335262" lon="17.5126061775">
        <ele>47.2</ele>
        <time>2013-01-01T21:37:21Z</time>
      </trkpt>
      <trkpt lat="59.5963866636" lon="17.512572147">
        <ele>48.2</ele>
        <time>2013-01-01T21:37:24Z</time>
      </trkpt>
      <trkpt lat="59.5964412298" lon="17.5125613343">
        <ele>48.4</ele>
        <time>2013-01-01T21:37:25Z</time>
      </trkpt>
      <trkpt lat="59.5966131426" lon="17.512554545">
        <ele>49.8</ele>
        <time>2013-01-01T21:37:28Z</time>
      </trkpt>
      <trkpt lat="59.5966668706" lon="17.5125368591">
        <ele>50.2</ele>
        <time>2013-01-01T21:37:29Z</time>
      </trkpt>
      <trkpt lat="59.5968508534" lon="17.5125056785">
        <ele>50.8</ele>
        <time>2013-01-01T21:37:32Z</time>
      </trkpt>
      <trkpt lat="59.5969036594" lon="17.5124910939">
        <ele>51</ele>
        <time>2013-01-01T21:37:33Z</time>
      </trkpt>
      <trkpt lat="59.5970671903" lon="17.5124232844">
        <ele>51.2</ele>
        <time>2013-01-01T21:37:36Z</time>
      </trkpt>
      <trkpt lat="59.5971835312" lon="17.5123977195">
        <ele>51.6</ele>
        <time>2013-01-01T21:37:38Z</time>
      </trkpt>
      <trkpt lat="59.597280845" lon="17.5123680476">
        <ele>52</ele>
        <time>2013-01-01T21:37:40Z</time>
      </trkpt>
      <trkpt lat="59.5973231737" lon="17.5123384595">
        <ele>52</ele>
        <time>2013-01-01T21:37:41Z</time>
      </trkpt>
      <trkpt lat="59.5974526741" lon="17.5122846477">
        <ele>52.4</ele>
        <time>2013-01-01T21:37:44Z</time>
      </trkpt>
      <trkpt lat="59.5974952541" lon="17.5122537185">
        <ele>52.4</ele>
        <time>2013-01-01T21:37:45Z</time>
      </trkpt>
      <trkpt lat="59.5976417698" lon="17.5121670496">
        <ele>52.2</ele>
        <time>2013-01-01T21:37:48Z</time>
      </trkpt>
      <trkpt lat="59.5978133474" lon="17.5120619405">
        <ele>51.8</ele>
        <time>2013-01-01T21:37:52Z</time>
      </trkpt>
      <trkpt lat="59.597845953" lon="17.5120248925">
        <ele>51.8</ele>
        <time>2013-01-01T21:37:53Z</time>
      </trkpt>
      <trkpt lat="59.5978860185" lon="17.511987593">
        <ele>51.6</ele>
        <time>2013-01-01T21:37:54Z</time>
      </trkpt>
      <trkpt lat="59.5980091486" lon="17.5118313543">
        <ele>51</ele>
        <time>2013-01-01T21:37:57Z</time>
      </trkpt>
      <trkpt lat="59.5980445202" lon="17.5117591862">
        <ele>50.6</ele>
        <time>2013-01-01T21:37:58Z</time>
      </trkpt>
      <trkpt lat="59.5981539879" lon="17.5115532428">
        <ele>49.2</ele>
        <time>2013-01-01T21:38:01Z</time>
      </trkpt>
      <trkpt lat="59.5981894433" lon="17.5115027837">
        <ele>48.8</ele>
        <time>2013-01-01T21:38:02Z</time>
      </trkpt>
      <trkpt lat="59.5982723404" lon="17.5113800727">
        <ele>48</ele>
        <time>2013-01-01T21:38:04Z</time>
      </trkpt>
      <trkpt lat="59.5983105619" lon="17.511301199">
        <ele>47.4</ele>
        <time>2013-01-01T21:38:05Z</time>
      </trkpt>
      <trkpt lat="59.5984741766" lon="17.5110740494">
        <ele>45.4</ele>
        <time>2013-01-01T21:38:09Z</time>
      </trkpt>
      <trkpt lat="59.5985249709" lon="17.5110454671">
        <ele>45.2</ele>
        <time>2013-01-01T21:38:10Z</time>
      </trkpt>
      <trkpt lat="59.5986261405" lon="17.5110018812">
        <ele>44.8</ele>
        <time>2013-01-01T21:38:12Z</time>
      </trkpt>
      <trkpt lat="59.5986821316" lon="17.5109896436">
        <ele>44.8</ele>
        <time>2013-01-01T21:38:13Z</time>
      </trkpt>
      <trkpt lat="59.5988960378" lon="17.5109094288">
        <ele>44.2</ele>
        <time>2013-01-01T21:38:17Z</time>
      </trkpt>
      <trkpt lat="59.599092342" lon="17.5108210836">
        <ele>43.8</ele>
        <time>2013-01-01T21:38:21Z</time>
      </trkpt>
      <trkpt lat="59.599155793" lon="17.510814378">
        <ele>43.8</ele>
        <time>2013-01-01T21:38:22Z</time>
      </trkpt>
      <trkpt lat="59.5992712956" lon="17.5108471513">
        <ele>43.8</ele>
        <time>2013-01-01T21:38:24Z</time>
      </trkpt>
      <trkpt lat="59.5994324796" lon="17.5111219939">
        <ele>45.4</ele>
        <time>2013-01-01T21:38:28Z</time>
      </trkpt>
      <trkpt lat="59.5994643308" lon="17.511207154">
        <ele>45.8</ele>
        <time>2013-01-01T21:38:29Z</time>
      </trkpt>
      <trkpt lat="59.5994945895" lon="17.5112911407">
        <ele>46.2</ele>
        <time>2013-01-01T21:38:30Z</time>
      </trkpt>
      <trkpt lat="59.5995130297" lon="17.5114607904">
        <ele>47.2</ele>
        <time>2013-01-01T21:38:32Z</time>
      </trkpt>
      <trkpt lat="59.5995325595" lon="17.5115988404">
        <ele>47.8</ele>
        <time>2013-01-01T21:38:34Z</time>
      </trkpt>
      <trkpt lat="59.5995345712" lon="17.511667572">
        <ele>48.2</ele>
        <time>2013-01-01T21:38:35Z</time>
      </trkpt>
      <trkpt lat="59.5995223336" lon="17.5118246488">
        <ele>48.6</ele>
        <time>2013-01-01T21:38:37Z</time>
      </trkpt>
      <trkpt lat="59.5995096769" lon="17.5118948892">
        <ele>48.8</ele>
        <time>2013-01-01T21:38:38Z</time>
      </trkpt>
      <trkpt lat="59.5994612295" lon="17.5121916924">
        <ele>49.8</ele>
        <time>2013-01-01T21:38:43Z</time>
      </trkpt>
      <trkpt lat="59.5994412806" lon="17.5122299977">
        <ele>50</ele>
        <time>2013-01-01T21:38:44Z</time>
      </trkpt>
      <trkpt lat="59.5993093494" lon="17.5124496873">
        <ele>51.6</ele>
        <time>2013-01-01T21:38:49Z</time>
      </trkpt>
      <trkpt lat="59.5992670208" lon="17.5128051639">
        <ele>52</ele>
        <time>2013-01-01T21:38:55Z</time>
      </trkpt>
      <trkpt lat="59.5992487483" lon="17.5132049806">
        <ele>52</ele>
        <time>2013-01-01T21:39:00Z</time>
      </trkpt>
      <trkpt lat="59.5992018934" lon="17.5133825932">
        <ele>52.2</ele>
        <time>2013-01-01T21:39:03Z</time>
      </trkpt>
      <trkpt lat="59.5991444774" lon="17.5135083217">
        <ele>52.2</ele>
        <time>2013-01-01T21:39:06Z</time>
      </trkpt>
      <trkpt lat="59.599127965" lon="17.5135515723">
        <ele>52</ele>
        <time>2013-01-01T21:39:07Z</time>
      </trkpt>
      <trkpt lat="59.5990076847" lon="17.5137400813">
        <ele>51.8</ele>
        <time>2013-01-01T21:39:12Z</time>
      </trkpt>
      <trkpt lat="59.598813476" lon="17.5138661452">
        <ele>52.4</ele>
        <time>2013-01-01T21:39:17Z</time>
      </trkpt>
      <trkpt lat="59.5986939501" lon="17.5138804782">
        <ele>53</ele>
        <time>2013-01-01T21:39:21Z</time>
      </trkpt>
      <trkpt lat="59.5986510348" lon="17.5138883572">
        <ele>53.4</ele>
        <time>2013-01-01T21:39:28Z</time>
      </trkpt>
      <trkpt lat="59.5988356881" lon="17.5137617905">
        <ele>52.6</ele>
        <time>2013-01-01T21:39:35Z</time>
      </trkpt>
      <trkpt lat="59.5988868177" lon="17.5136850961">
        <ele>52.6</ele>
        <time>2013-01-01T21:39:36Z</time>
      </trkpt>
      <trkpt lat="59.598970972" lon="17.5134795718">
        <ele>53</ele>
        <time>2013-01-01T21:39:38Z</time>
      </trkpt>
      <trkpt lat="59.59907935" lon="17.5131296273">
        <ele>53.2</ele>
        <time>2013-01-01T21:39:41Z</time>
      </trkpt>
      <trkpt lat="59.5991139673" lon="17.512737019">
        <ele>53</ele>
        <time>2013-01-01T21:39:45Z</time>
      </trkpt>
      <trkpt lat="59.5991365984" lon="17.5123353582">
        <ele>52.6</ele>
        <time>2013-01-01T21:39:50Z</time>
      </trkpt>
      <trkpt lat="59.5992997941" lon="17.512127487">
        <ele>51</ele>
        <time>2013-01-01T21:39:55Z</time>
      </trkpt>
      <trkpt lat="59.5993437991" lon="17.512086248">
        <ele>50.6</ele>
        <time>2013-01-01T21:39:56Z</time>
      </trkpt>
      <trkpt lat="59.5994237624" lon="17.5119576696">
        <ele>49.6</ele>
        <time>2013-01-01T21:39:58Z</time>
      </trkpt>
      <trkpt lat="59.5994513389" lon="17.5119042769">
        <ele>49.4</ele>
        <time>2013-01-01T21:39:59Z</time>
      </trkpt>
      <trkpt lat="59.5994819328" lon="17.5118385628">
        <ele>49</ele>
        <time>2013-01-01T21:40:00Z</time>
      </trkpt>
      <trkpt lat="59.5995000377" lon="17.5115055498">
        <ele>47.6</ele>
        <time>2013-01-01T21:40:04Z</time>
      </trkpt>
      <trkpt lat="59.5994881354" lon="17.5113463774">
        <ele>46.6</ele>
        <time>2013-01-01T21:40:06Z</time>
      </trkpt>
      <trkpt lat="59.5994372573" lon="17.511139093">
        <ele>45.6</ele>
        <time>2013-01-01T21:40:09Z</time>
      </trkpt>
      <trkpt lat="59.5994079206" lon="17.5110638235">
        <ele>45.2</ele>
        <time>2013-01-01T21:40:10Z</time>
      </trkpt>
      <trkpt lat="59.5992937591" lon="17.5109243486">
        <ele>44.4</ele>
        <time>2013-01-01T21:40:13Z</time>
      </trkpt>
      <trkpt lat="59.5991086867" lon="17.5108729675">
        <ele>44.2</ele>
        <time>2013-01-01T21:40:17Z</time>
      </trkpt>
      <trkpt lat="59.5989073534" lon="17.5109585468">
        <ele>44.6</ele>
        <time>2013-01-01T21:40:23Z</time>
      </trkpt>
      <trkpt lat="59.5987623464" lon="17.5110537652">
        <ele>45.4</ele>
        <time>2013-01-01T21:40:28Z</time>
      </trkpt>
      <trkpt lat="59.5987325907" lon="17.511075139">
        <ele>45.6</ele>
        <time>2013-01-01T21:40:29Z</time>
      </trkpt>
      <trkpt lat="59.5985525474" lon="17.5111866184">
        <ele>46.4</ele>
        <time>2013-01-01T21:40:34Z</time>
      </trkpt>
      <trkpt lat="59.59836605" lon="17.5113719422">
        <ele>48</ele>
        <time>2013-01-01T21:40:40Z</time>
      </trkpt>
      <trkpt lat="59.59821417" lon="17.5115814898">
        <ele>49.8</ele>
        <time>2013-01-01T21:40:47Z</time>
      </trkpt>
      <trkpt lat="59.5980632957" lon="17.5117982458">
        <ele>51</ele>
        <time>2013-01-01T21:40:53Z</time>
      </trkpt>
      <trkpt lat="59.5979126729" lon="17.5120106433">
        <ele>51.8</ele>
        <time>2013-01-01T21:40:59Z</time>
      </trkpt>
      <trkpt lat="59.5977187995" lon="17.5121713243">
        <ele>52.2</ele>
        <time>2013-01-01T21:41:06Z</time>
      </trkpt>
      <trkpt lat="59.5975433663" lon="17.512276182">
        <ele>52.6</ele>
        <time>2013-01-01T21:41:11Z</time>
      </trkpt>
      <trkpt lat="59.5973555278" lon="17.5123553909">
        <ele>52.2</ele>
        <time>2013-01-01T21:41:17Z</time>
      </trkpt>
      <trkpt lat="59.5971771609" lon="17.5124167465">
        <ele>51.8</ele>
        <time>2013-01-01T21:41:22Z</time>
      </trkpt>
      <trkpt lat="59.5970011409" lon="17.5125145633">
        <ele>51.6</ele>
        <time>2013-01-01T21:41:27Z</time>
      </trkpt>
      <trkpt lat="59.5967964549" lon="17.5125811994">
        <ele>51</ele>
        <time>2013-01-01T21:41:32Z</time>
      </trkpt>
      <trkpt lat="59.5966070239" lon="17.5125951972">
        <ele>50</ele>
        <time>2013-01-01T21:41:36Z</time>
      </trkpt>
      <trkpt lat="59.5964132342" lon="17.5126259588">
        <ele>48.8</ele>
        <time>2013-01-01T21:41:41Z</time>
      </trkpt>
      <trkpt lat="59.5962531399" lon="17.512682369">
        <ele>48</ele>
        <time>2013-01-01T21:41:46Z</time>
      </trkpt>
      <trkpt lat="59.5962188579" lon="17.5127001386">
        <ele>48</ele>
        <time>2013-01-01T21:41:47Z</time>
      </trkpt>
      <trkpt lat="59.5960326958" lon="17.5128105283">
        <ele>47.8</ele>
        <time>2013-01-01T21:41:52Z</time>
      </trkpt>
      <trkpt lat="59.5958541613" lon="17.5129660964">
        <ele>48.6</ele>
        <time>2013-01-01T21:41:58Z</time>
      </trkpt>
      <trkpt lat="59.5957508963" lon="17.5132986903">
        <ele>52.2</ele>
        <time>2013-01-01T21:42:05Z</time>
      </trkpt>
      <trkpt lat="59.5957517345" lon="17.5136717688">
        <ele>55.4</ele>
        <time>2013-01-01T21:42:12Z</time>
      </trkpt>
      <trkpt lat="59.5957891177" lon="17.5140409917">
        <ele>58.6</ele>
        <time>2013-01-01T21:42:19Z</time>
      </trkpt>
      <trkpt lat="59.595789453" lon="17.5142596755">
        <ele>59.8</ele>
        <time>2013-01-01T21:42:23Z</time>
      </trkpt>
      <trkpt lat="59.5957768802" lon="17.5144163333">
        <ele>60</ele>
        <time>2013-01-01T21:42:26Z</time>
      </trkpt>
      <trkpt lat="59.5956911333" lon="17.5147702172">
        <ele>60.4</ele>
        <time>2013-01-01T21:42:32Z</time>
      </trkpt>
      <trkpt lat="59.5956512354" lon="17.515156623">
        <ele>60.6</ele>
        <time>2013-01-01T21:42:39Z</time>
      </trkpt>
      <trkpt lat="59.5955679193" lon="17.515366422">
        <ele>60.4</ele>
        <time>2013-01-01T21:42:43Z</time>
      </trkpt>
      <trkpt lat="59.5955349784" lon="17.5154630654">
        <ele>60.4</ele>
        <time>2013-01-01T21:42:45Z</time>
      </trkpt>
      <trkpt lat="59.5954951644" lon="17.5155924819">
        <ele>60.4</ele>
        <time>2013-01-01T21:42:48Z</time>
      </trkpt>
      <trkpt lat="59.5954007842" lon="17.5156944897">
        <ele>60.4</ele>
        <time>2013-01-01T21:42:51Z</time>
      </trkpt>
      <trkpt lat="59.5952828508" lon="17.5157420989">
        <ele>60.6</ele>
        <time>2013-01-01T21:42:54Z</time>
      </trkpt>
      <trkpt lat="59.5951728802" lon="17.515736483">
        <ele>60.6</ele>
        <time>2013-01-01T21:42:56Z</time>
      </trkpt>
      <trkpt lat="59.595006248" lon="17.5157224853">
        <ele>60.8</ele>
        <time>2013-01-01T21:42:59Z</time>
      </trkpt>
      <trkpt lat="59.5949583873" lon="17.5157022849">
        <ele>60.6</ele>
        <time>2013-01-01T21:43:00Z</time>
      </trkpt>
      <trkpt lat="59.5947799366" lon="17.515618382">
        <ele>60</ele>
        <time>2013-01-01T21:43:04Z</time>
      </trkpt>
      <trkpt lat="59.5945759211" lon="17.5154835172">
        <ele>58.8</ele>
        <time>2013-01-01T21:43:09Z</time>
      </trkpt>
      <trkpt lat="59.5945289824" lon="17.515463233">
        <ele>58.6</ele>
        <time>2013-01-01T21:43:10Z</time>
      </trkpt>
      <trkpt lat="59.5944174193" lon="17.5154063199">
        <ele>58</ele>
        <time>2013-01-01T21:43:12Z</time>
      </trkpt>
      <trkpt lat="59.5943540521" lon="17.515377067">
        <ele>57.6</ele>
        <time>2013-01-01T21:43:13Z</time>
      </trkpt>
      <trkpt lat="59.5941725839" lon="17.5152549427">
        <ele>56.2</ele>
        <time>2013-01-01T21:43:16Z</time>
      </trkpt>
      <trkpt lat="59.59402062" lon="17.5150080957">
        <ele>54.6</ele>
        <time>2013-01-01T21:43:19Z</time>
      </trkpt>
      <trkpt lat="59.5938705839" lon="17.5146977976">
        <ele>52.8</ele>
        <time>2013-01-01T21:43:22Z</time>
      </trkpt>
      <trkpt lat="59.5936947316" lon="17.5145297404">
        <ele>51.6</ele>
        <time>2013-01-01T21:43:25Z</time>
      </trkpt>
      <trkpt lat="59.5935024507" lon="17.5146511942">
        <ele>51.6</ele>
        <time>2013-01-01T21:43:28Z</time>
      </trkpt>
      <trkpt lat="59.5933357347" lon="17.5147707202">
        <ele>51.8</ele>
        <time>2013-01-01T21:43:31Z</time>
      </trkpt>
      <trkpt lat="59.5932982676" lon="17.5148286391">
        <ele>52</ele>
        <time>2013-01-01T21:43:32Z</time>
      </trkpt>
      <trkpt lat="59.5931423642" lon="17.5151149649">
        <ele>52.4</ele>
        <time>2013-01-01T21:43:36Z</time>
      </trkpt>
      <trkpt lat="59.5930941682" lon="17.5152545236">
        <ele>52.8</ele>
        <time>2013-01-01T21:43:38Z</time>
      </trkpt>
      <trkpt lat="59.5930673461" lon="17.5153259374">
        <ele>53</ele>
        <time>2013-01-01T21:43:39Z</time>
      </trkpt>
      <trkpt lat="59.5930273645" lon="17.5154716987">
        <ele>53.2</ele>
        <time>2013-01-01T21:43:41Z</time>
      </trkpt>
      <trkpt lat="59.5930141211" lon="17.5155211519">
        <ele>53.4</ele>
        <time>2013-01-01T21:43:42Z</time>
      </trkpt>
      <trkpt lat="59.5929655898" lon="17.5157202221">
        <ele>53.8</ele>
        <time>2013-01-01T21:43:45Z</time>
      </trkpt>
      <trkpt lat="59.5929504186" lon="17.5157973357">
        <ele>54</ele>
        <time>2013-01-01T21:43:46Z</time>
      </trkpt>
      <trkpt lat="59.5928518474" lon="17.5161185302">
        <ele>54.2</ele>
        <time>2013-01-01T21:43:53Z</time>
      </trkpt>
      <trkpt lat="59.5927322377" lon="17.5164407305">
        <ele>54</ele>
        <time>2013-01-01T21:44:01Z</time>
      </trkpt>
      <trkpt lat="59.5926549565" lon="17.5167600811">
        <ele>54.2</ele>
        <time>2013-01-01T21:44:08Z</time>
      </trkpt>
      <trkpt lat="59.5926243626" lon="17.5171279628">
        <ele>54.8</ele>
        <time>2013-01-01T21:44:16Z</time>
      </trkpt>
      <trkpt lat="59.5925776754" lon="17.5175010413">
        <ele>55.4</ele>
        <time>2013-01-01T21:44:24Z</time>
      </trkpt>
    </trkseg>
  </trk>
</gpx>